M I D A S
Marine Information and Data Acquisition System
Tripno 859 of the Zeeleeuw from 2005-03-09 07:26:14 to 2005-03-09 16:05:02
Back to CruiseResearch ActivitiesStationsMapUnderway DataData graphs

EquipmentUnitsComment
TimeDGPSUTC
LatitudeDGPSDM.mWGS84
LongitudeDGPSDM.mWGS84
TemperatureSBE03/SBE38deg celciusITS90
ConductivitySBE21S/mITS90
SalinitySBE21 Practical Salinity Units
ChlorophylAChelsea fluorimeterg/lCalibrated in Aceton
Missing or incorrect values are displayed as -999
Sea surface data collected by the RV Zeeleeuw from 2005-03-09 07:26:29 to 2005-03-09 16:16:56
                                                                                    Next 1000 lines
Time Latitude Longitude Temperature Conductivity Salinity ChlorophylA
2005-03-09 07:26:38 51°13.596 2°56.098 12.1928 3.766618 28.935029 -0.848668
2005-03-09 07:26:44 51°13.597 2°56.094 12.1737 3.766618 28.935029 -0.848668
2005-03-09 07:26:50 51°13.599 2°56.088 12.1126 3.766723 28.935397 -0.882377
2005-03-09 07:26:55 51°13.6 2°56.082 12.1512 3.766723 28.935397 -0.916087
2005-03-09 07:27:00 51°13.602 2°56.076 12.1983 3.766828 28.935765 -0.882377
2005-03-09 07:27:04 51°13.604 2°56.071 12.2273 3.766934 28.936133 -0.882377
2005-03-09 07:27:10 51°13.606 2°56.064 12.191 3.766934 28.935602 -0.848668
2005-03-09 07:27:14 51°13.608 2°56.057 12.274 3.766934 28.935602 -0.848668
2005-03-09 07:27:19 51°13.61 2°56.05 12.2231 3.766934 28.935602 -0.882377
2005-03-09 07:27:25 51°13.613 2°56.041 12.2436 3.767039 28.93597 -0.882377
2005-03-09 07:27:30 51°13.615 2°56.034 12.2423 3.767039 28.93597 -0.848668
2005-03-09 07:27:34 51°13.617 2°56.027 12.2187 3.767144 28.936338 -0.848668
2005-03-09 07:27:40 51°13.62 2°56.018 12.2229 3.76725 28.936175 -0.882377
2005-03-09 07:27:44 51°13.622 2°56.011 12.2339 3.76725 28.936175 -0.882377
2005-03-09 07:27:50 51°13.625 2°56.002 12.2763 3.76725 28.935643 -0.848668
2005-03-09 07:27:54 51°13.627 2°55.995 12.2406 3.767355 28.93548 -0.882377
2005-03-09 07:28:00 51°13.63 2°55.986 12.2297 3.76725 28.934581 -0.916087
2005-03-09 07:28:04 51°13.633 2°55.978 12.2332 3.767461 28.93638 -0.882377
2005-03-09 07:28:10 51°13.636 2°55.969 12.2502 3.767461 28.935848 -0.882377
2005-03-09 07:28:14 51°13.639 2°55.962 12.2746 3.767461 28.935848 -0.882377
2005-03-09 07:28:20 51°13.642 2°55.953 12.3005 3.767461 28.93638 -0.916087
2005-03-09 07:28:24 51°13.645 2°55.946 12.2918 3.767566 28.936216 -0.882377
2005-03-09 07:28:29 51°13.648 2°55.938 12.274 3.767566 28.935685 -0.848668
2005-03-09 07:28:34 51°13.652 2°55.93 12.2719 3.767671 28.936053 -0.882377
2005-03-09 07:28:40 51°13.656 2°55.921 12.279 3.767777 28.935359 -0.882377
2005-03-09 07:28:45 51°13.661 2°55.913 12.2775 3.767777 28.935359 -0.882377
2005-03-09 07:28:50 51°13.665 2°55.905 12.2773 3.767777 28.935359 -0.916087
2005-03-09 07:28:54 51°13.669 2°55.898 12.2746 3.767987 28.936626 -0.916087
2005-03-09 07:29:00 51°13.673 2°55.889 12.274 3.767882 28.935727 -0.882377
2005-03-09 07:29:04 51°13.677 2°55.882 12.2781 3.767987 28.936626 -0.882377
2005-03-09 07:29:10 51°13.682 2°55.872 12.2875 3.767987 28.936095 -0.882377
2005-03-09 07:29:14 51°13.686 2°55.864 12.2778 3.767987 28.936095 -0.882377
2005-03-09 07:29:19 51°13.69 2°55.856 11.9196 3.768093 28.935932 -0.882377
2005-03-09 07:29:24 51°13.693 2°55.848 7.9058 3.768093 28.93487 -0.916087
2005-03-09 07:29:30 51°13.698 2°55.839 6.2147 3.760086 28.995392 -0.578993
2005-03-09 07:29:34 51°13.701 2°55.832 5.1869 3.716768 28.352344 -0.781249
2005-03-09 07:29:40 51°13.704 2°55.823 4.6297 3.6213 27.543756 0.870512
2005-03-09 07:29:44 51°13.707 2°55.815 4.3877 3.6213 27.543756 0.870512
2005-03-09 07:29:50 51°13.71 2°55.806 4.2592 3.378165 25.968916 1.848084
2005-03-09 07:29:54 51°13.713 2°55.798 4.1604 3.323855 27.83734 2.08405
2005-03-09 07:30:00 51°13.716 2°55.788 4.0851 2.642013 23.239297 2.421144
2005-03-09 07:30:05 51°13.719 2°55.779 3.9808 2.346331 21.619802 3.162751
2005-03-09 07:30:10 51°13.722 2°55.77 3.9476 2.301774 22.08015 3.162751
2005-03-09 07:30:15 51°13.724 2°55.761 3.8899 2.301774 22.08015 3.162751
2005-03-09 07:30:20 51°13.727 2°55.752 3.836 2.29232 22.523001 3.129042
2005-03-09 07:30:24 51°13.729 2°55.744 3.8182 2.14268 21.263867 3.095332
2005-03-09 07:30:30 51°13.731 2°55.734 3.8304 2.179877 21.849888 3.061623
2005-03-09 07:30:35 51°13.733 2°55.724 3.7897 2.379681 24.194362 3.129042
2005-03-09 07:30:40 51°13.734 2°55.715 3.7279 2.281398 23.239572 3.129042
2005-03-09 07:30:44 51°13.735 2°55.709 3.7232 2.281398 23.239572 3.129042
2005-03-09 07:30:50 51°13.736 2°55.702 3.708 2.271624 23.191933 3.19646
2005-03-09 07:30:54 51°13.737 2°55.699 3.7121 2.264058 23.17132 3.23017
2005-03-09 07:30:58 51°13.737 2°55.698 3.702 2.249344 23.063584 3.331298
2005-03-09 07:31:04 51°13.737 2°55.7 3.7068 2.240096 22.992671 3.499845
2005-03-09 07:31:09 51°13.738 2°55.704 3.6728 2.238625 23.007184 3.634683
2005-03-09 07:31:14 51°13.74 2°55.708 3.72 2.238625 23.007184 3.634683
2005-03-09 07:31:19 51°13.741 2°55.712 3.7468 2.239782 23.06006 3.76952
2005-03-09 07:31:24 51°13.742 2°55.714 3.7836 2.246298 23.158548 3.938067
2005-03-09 07:31:28 51°13.742 2°55.715 3.8989 2.22528 22.930272 4.072905
2005-03-09 07:31:34 51°13.742 2°55.715 3.7778 2.214561 22.834861 4.207742
2005-03-09 07:31:39 51°13.742 2°55.714 3.7968 2.202897 22.720615 4.409999
2005-03-09 07:31:44 51°13.74 2°55.713 3.7605 2.202897 22.720615 4.409999
2005-03-09 07:31:49 51°13.738 2°55.71 3.762 2.148152 22.10223 4.544836
2005-03-09 07:31:54 51°13.736 2°55.707 3.6947 2.071985 21.235429 4.612255
2005-03-09 07:32:00 51°13.734 2°55.703 3.672 1.995413 20.357718 4.713383
2005-03-09 07:32:04 51°13.732 2°55.701 3.6428 1.936289 19.689576 4.747093
2005-03-09 07:32:10 51°13.731 2°55.7 3.6324 1.905314 19.358568 4.88193
2005-03-09 07:32:15 51°13.732 2°55.7 3.6104 1.905314 19.358568 4.88193
2005-03-09 07:32:20 51°13.734 2°55.701 3.6086 1.889565 19.190512 5.050477
2005-03-09 07:32:24 51°13.736 2°55.702 3.6163 1.882635 19.124746 5.084187
2005-03-09 07:32:30 51°13.741 2°55.703 3.6152 1.907729 19.422188 5.084187
2005-03-09 07:32:34 51°13.746 2°55.703 3.6172 1.962963 20.05835 5.4887
2005-03-09 07:32:40 51°13.753 2°55.7 3.647 2.01852 20.69758 5.758375
2005-03-09 07:32:44 51°13.758 2°55.697 3.6704 2.01852 20.69758 5.758375
2005-03-09 07:32:49 51°13.764 2°55.692 3.6829 2.069779 21.28994 6.02805
2005-03-09 07:32:54 51°13.77 2°55.687 3.6525 2.098668 21.627043 6.331435
2005-03-09 07:32:59 51°13.776 2°55.682 3.6393 2.1014 21.662517 6.264016
2005-03-09 07:33:04 51°13.783 2°55.676 3.6544 2.084802 21.478048 6.533691
2005-03-09 07:33:09 51°13.791 2°55.669 3.65 2.067048 21.277248 6.398853
2005-03-09 07:33:14 51°13.798 2°55.663 3.6924 2.067048 21.277248 6.398853
2005-03-09 07:33:19 51°13.805 2°55.657 3.6764 2.033015 20.884289 6.331435
2005-03-09 07:33:24 51°13.814 2°55.65 3.6464 2.002976 20.543871 6.196597
2005-03-09 07:33:29 51°13.821 2°55.644 3.6535 1.991108 20.412781 6.061759
2005-03-09 07:33:34 51°13.83 2°55.637 3.6568 2.00035 20.519526 6.129178
2005-03-09 07:33:39 51°13.84 2°55.63 3.635 1.99741 20.49053 5.994341
2005-03-09 07:33:44 51°13.848 2°55.624 3.6396 1.99741 20.49053 5.994341
2005-03-09 07:33:48 51°13.856 2°55.619 3.6414 1.969264 20.166989 5.994341
2005-03-09 07:33:54 51°13.868 2°55.61 3.6319 1.92348 19.659003 5.859503
2005-03-09 07:33:59 51°13.876 2°55.604 3.6509 1.876547 19.140526 5.758375
2005-03-09 07:34:04 51°13.887 2°55.597 3.6616 1.846522 18.81181 5.690956
2005-03-09 07:34:09 51°13.896 2°55.59 3.6371 1.83214 18.65181 5.589828
2005-03-09 07:34:14 51°13.905 2°55.583 3.6244 1.83214 18.65181 5.589828
2005-03-09 07:34:19 51°13.915 2°55.576 3.6143 1.827416 18.605548 5.522409
2005-03-09 07:34:24 51°13.925 2°55.568 3.6015 1.830461 18.643368 5.353862
2005-03-09 07:34:29 51°13.936 2°55.56 3.6157 1.837389 18.719705 5.320153
2005-03-09 07:34:34 51°13.946 2°55.553 3.6037 1.843897 18.791925 5.219024
2005-03-09 07:34:39 51°13.957 2°55.545 3.6179 1.865419 19.029887 5.219024
2005-03-09 07:34:44 51°13.967 2°55.538 3.6104 1.865419 19.029887 5.219024
2005-03-09 07:34:50 51°13.98 2°55.529 3.6133 1.881062 19.210086 5.219024
2005-03-09 07:34:55 51°13.992 2°55.521 3.5779 1.904895 19.48023 5.084187
2005-03-09 07:35:00 51°14.002 2°55.514 3.5658 1.92075 19.667211 5.016768
2005-03-09 07:35:04 51°14.011 2°55.508 3.5578 1.92369 19.70218 4.91564
2005-03-09 07:35:09 51°14.023 2°55.499 3.5481 1.91214 19.575423 4.679674
2005-03-09 07:35:14 51°14.034 2°55.491 3.5381 1.91214 19.575423 4.679674
2005-03-09 07:35:19 51°14.045 2°55.483 3.534 1.90458 19.486832 4.612255
2005-03-09 07:35:24 51°14.054 2°55.476 3.5261 1.905315 19.497692 4.477418
2005-03-09 07:35:28 51°14.063 2°55.47 3.5402 1.92411 19.722502 4.376289
2005-03-09 07:35:34 51°14.076 2°55.46 3.5253 1.947002 19.987727 4.308871
2005-03-09 07:35:38 51°14.086 2°55.452 3.5367 1.97042 20.253899 4.207742
2005-03-09 07:35:44 51°14.098 2°55.442 3.5379 1.97042 20.253899 4.207742
2005-03-09 07:35:48 51°14.107 2°55.435 3.5233 1.992264 20.513531 4.275161
2005-03-09 07:35:54 51°14.12 2°55.424 3.5217 2.004657 20.65448 4.34258
2005-03-09 07:35:58 51°14.13 2°55.416 3.5205 2.000036 20.60762 4.207742
2005-03-09 07:36:04 51°14.143 2°55.405 3.502 1.969265 20.266469 4.207742
2005-03-09 07:36:09 51°14.156 2°55.393 3.503 1.945217 19.99785 4.005486
2005-03-09 07:36:14 51°14.167 2°55.381 3.4907 1.945217 19.99785 4.005486
2005-03-09 07:36:20 51°14.18 2°55.368 3.4936 1.931671 19.841728 4.039195
2005-03-09 07:36:24 51°14.189 2°55.357 3.4844 1.928521 19.810259 3.836939
2005-03-09 07:36:30 51°14.202 2°55.341 3.4866 1.944587 19.995721 3.80323
2005-03-09 07:36:34 51°14.212 2°55.328 3.4872 1.971681 20.303598 3.702101
2005-03-09 07:36:39 51°14.223 2°55.313 3.4989 1.997096 20.594883 3.702101
2005-03-09 07:36:44 51°14.232 2°55.299 3.4951 1.997096 20.594883 3.702101
2005-03-09 07:36:50 51°14.245 2°55.28 3.4994 2.018732 20.841871 3.702101
2005-03-09 07:36:54 51°14.254 2°55.265 3.5113 2.034277 21.022846 3.735811
2005-03-09 07:36:59 51°14.264 2°55.248 3.5039 2.041209 21.105107 3.76952
2005-03-09 07:37:04 51°14.273 2°55.233 3.5117 2.031231 20.995407 3.76952
2005-03-09 07:37:08 51°14.281 2°55.219 3.5176 2.019362 20.862136 3.76952
2005-03-09 07:37:14 51°14.294 2°55.196 3.5063 2.019362 20.862136 3.76952
2005-03-09 07:37:18 51°14.301 2°55.182 3.509 2.012115 20.779311 3.836939
2005-03-09 07:37:24 51°14.312 2°55.162 3.521 1.996361 20.601306 3.836939
2005-03-09 07:37:29 51°14.322 2°55.143 3.5265 1.979347 20.401464 3.870648
2005-03-09 07:37:34 51°14.332 2°55.125 3.5346 1.969895 20.29468 3.938067
2005-03-09 07:37:38 51°14.342 2°55.108 3.5634 1.958344 20.163274 3.938067
2005-03-09 07:37:44 51°14.352 2°55.086 3.6041 1.958344 20.163274 3.938067
2005-03-09 07:37:48 51°14.361 2°55.07 3.9066 1.954038 20.115493 3.836939
2005-03-09 07:37:54 51°14.372 2°55.047 4.2141 1.960234 20.18782 3.836939
2005-03-09 07:37:59 51°14.384 2°55.025 4.1629 1.975146 20.350894 3.870648
2005-03-09 07:38:04 51°14.396 2°55.005 3.907 1.989009 20.502239 3.836939
2005-03-09 07:38:09 51°14.408 2°54.987 3.6019 2.002137 20.642547 3.80323
2005-03-09 07:38:14 51°14.419 2°54.97 3.6889 2.002137 20.642547 3.80323
2005-03-09 07:38:20 51°14.434 2°54.947 3.5968 2.028289 20.919165 3.735811
2005-03-09 07:38:24 51°14.444 2°54.932 3.5836 2.051187 21.099059 3.634683
2005-03-09 07:38:29 51°14.458 2°54.912 3.6444 2.069568 21.164153 3.533554
2005-03-09 07:38:34 51°14.47 2°54.894 3.5749 2.096986 21.447307 3.466136
2005-03-09 07:38:39 51°14.485 2°54.873 3.5926 2.155506 22.172305 3.432426
2005-03-09 07:38:44 51°14.497 2°54.856 3.5326 2.155506 22.172305 3.432426
2005-03-09 07:38:49 51°14.511 2°54.834 3.5244 2.216663 22.945148 3.365007
2005-03-09 07:38:54 51°14.524 2°54.815 3.4998 2.272049 23.624048 3.365007
2005-03-09 07:38:59 51°14.537 2°54.795 3.4735 2.331542 24.320144 3.23017
2005-03-09 07:39:04 51°14.549 2°54.777 3.4597 2.376745 24.843354 3.19646
2005-03-09 07:39:08 51°14.559 2°54.761 3.4218 2.415434 25.30987 3.129042
2005-03-09 07:39:14 51°14.575 2°54.737 3.3805 2.415434 25.30987 3.129042
2005-03-09 07:39:19 51°14.589 2°54.715 3.3739 2.445611 25.672317 3.129042
2005-03-09 07:39:24 51°14.6 2°54.696 3.3506 2.470005 25.968333 2.893076
2005-03-09 07:39:28 51°14.612 2°54.678 3.3452 2.490931 26.225681 2.825657
2005-03-09 07:39:34 51°14.627 2°54.655 3.3487 2.510281 26.475529 2.724529
2005-03-09 07:39:39 51°14.641 2°54.635 3.3454 2.532366 26.754158 2.65711
2005-03-09 07:39:44 51°14.654 2°54.618 3.3235 2.532366 26.754158 2.65711
2005-03-09 07:39:49 51°14.668 2°54.598 3.2932 2.557922 27.077644 2.65711
2005-03-09 07:39:54 51°14.682 2°54.579 3.2945 2.578327 27.339861 2.589691
2005-03-09 07:39:59 51°14.694 2°54.562 3.2982 2.600415 27.616377 2.555982
2005-03-09 07:40:04 51°14.709 2°54.542 3.3056 2.614825 27.798436 2.488563
2005-03-09 07:40:09 51°14.723 2°54.524 3.2877 2.627132 27.959275 2.454853
2005-03-09 07:40:14 51°14.737 2°54.506 3.2882 2.627132 27.959275 2.454853
2005-03-09 07:40:18 51°14.748 2°54.492 3.2996 2.635337 28.061499 2.454853
2005-03-09 07:40:24 51°14.764 2°54.474 3.3007 2.645962 28.198387 2.454853
2005-03-09 07:40:29 51°14.779 2°54.456 3.2804 2.656166 28.323489 2.454853
2005-03-09 07:40:34 51°14.793 2°54.44 3.2709 2.659532 28.369243 2.589691
2005-03-09 07:40:39 51°14.807 2°54.422 3.2754 2.664897 28.435345 2.555982
2005-03-09 07:40:44 51°14.822 2°54.406 3.2758 2.664897 28.435345 2.555982
2005-03-09 07:40:49 51°14.836 2°54.389 3.2374 2.670683 28.511936 2.724529
2005-03-09 07:40:54 51°14.852 2°54.371 3.2556 2.662688 28.41177 2.859366
2005-03-09 07:40:58 51°14.863 2°54.357 3.2908 2.66921 28.497789 2.926785
2005-03-09 07:41:04 51°14.878 2°54.339 3.2677 2.675838 28.584337 2.994204
2005-03-09 07:41:08 51°14.889 2°54.325 3.2814 2.674891 28.581112 3.027913
2005-03-09 07:41:14 51°14.908 2°54.302 3.3038 2.674891 28.581112 3.027913
2005-03-09 07:41:20 51°14.923 2°54.283 3.275 2.67952 28.640286 3.129042
2005-03-09 07:41:24 51°14.934 2°54.269 3.2651 2.681098 28.668361 3.23017
2005-03-09 07:41:30 51°14.951 2°54.249 3.2891 2.687726 28.743966 3.19646
2005-03-09 07:41:34 51°14.964 2°54.233 3.2751 2.681414 28.662557 3.398717
2005-03-09 07:41:39 51°14.978 2°54.216 3.3008 2.688568 28.745918 3.466136
2005-03-09 07:41:44 51°14.991 2°54.201 3.2856 2.688568 28.745918 3.466136
2005-03-09 07:41:49 51°15.004 2°54.184 3.287 2.681519 28.658246 3.600973
2005-03-09 07:41:54 51°15.019 2°54.165 3.3134 2.687095 28.723822 3.80323
2005-03-09 07:41:58 51°15.03 2°54.151 3.2877 2.683939 28.693843 4.039195
2005-03-09 07:42:04 51°15.048 2°54.131 3.2974 2.682676 28.67344 4.34258
2005-03-09 07:42:09 51°15.062 2°54.115 3.2895 2.691092 28.767669 4.679674
2005-03-09 07:42:14 51°15.075 2°54.099 3.2847 2.691092 28.767669 4.679674
2005-03-09 07:42:18 51°15.088 2°54.085 3.299 2.683623 28.679024 4.983059
2005-03-09 07:42:24 51°15.104 2°54.066 3.2757 2.686043 28.70351 5.050477
2005-03-09 07:42:29 51°15.12 2°54.05 3.2921 2.686358 28.704047 5.252734
2005-03-09 07:42:34 51°15.134 2°54.037 3.2861 2.682992 28.663675 5.320153
2005-03-09 07:42:38 51°15.147 2°54.026 3.2982 2.689619 28.74319 5.320153
2005-03-09 07:42:44 51°15.165 2°54.011 3.3004 2.689619 28.74319 5.320153
2005-03-09 07:42:50 51°15.184 2°53.997 3.2728 2.682255 28.661357 5.151606
2005-03-09 07:42:54 51°15.199 2°53.987 3.2838 2.686043 28.705891 5.320153
2005-03-09 07:42:59 51°15.214 2°53.977 3.2588 2.689093 28.744156 5.320153
2005-03-09 07:43:04 51°15.229 2°53.966 3.2504 2.688357 28.736288 5.353862
2005-03-09 07:43:08 51°15.242 2°53.957 3.2527 2.687095 28.717469 5.45499
2005-03-09 07:43:14 51°15.263 2°53.94 3.2445 2.687095 28.717469 5.45499
2005-03-09 07:43:19 51°15.278 2°53.927 3.2327 2.689093 28.73621 5.387571
2005-03-09 07:43:24 51°15.292 2°53.915 3.2324 2.68983 28.755999 5.387571
2005-03-09 07:43:28 51°15.306 2°53.902 3.2366 2.68478 28.700568 5.185315
2005-03-09 07:43:34 51°15.325 2°53.886 3.2329 2.690566 28.779786 5.151606
2005-03-09 07:43:38 51°15.337 2°53.874 3.2405 2.693723 28.824916 5.084187
2005-03-09 07:43:44 51°15.354 2°53.859 3.2361 2.693723 28.824916 5.084187
2005-03-09 07:43:48 51°15.366 2°53.848 3.2436 2.696984 28.872116 4.848221
2005-03-09 07:43:54 51°15.386 2°53.83 3.2442 2.697405 28.883472 4.713383
2005-03-09 07:43:59 51°15.401 2°53.817 3.2487 2.699509 28.917079 4.713383
2005-03-09 07:44:04 51°15.416 2°53.804 3.2421 2.701929 28.945609 4.511127
2005-03-09 07:44:08 51°15.428 2°53.793 3.2421 2.703191 28.959692 4.241452
2005-03-09 07:44:14 51°15.448 2°53.775 3.253 2.703191 28.959692 4.241452
2005-03-09 07:44:18 51°15.46 2°53.763 3.2487 2.704769 28.972683 3.904358
2005-03-09 07:44:24 51°15.477 2°53.748 3.2587 2.706347 28.992895 3.702101
2005-03-09 07:44:29 51°15.494 2°53.732 3.2567 2.705401 28.980125 3.263879
2005-03-09 07:44:34 51°15.509 2°53.718 3.2632 2.709924 29.031862 2.994204
2005-03-09 07:44:38 51°15.522 2°53.706 3.2563 2.711187 29.049164 2.758238
2005-03-09 07:44:44 51°15.54 2°53.69 3.2594 2.711187 29.049164 2.758238
2005-03-09 07:44:49 51°15.555 2°53.675 3.2825 2.714764 29.088939 2.589691
2005-03-09 07:44:54 51°15.569 2°53.663 3.2773 2.715606 29.097255 2.454853
2005-03-09 07:44:59 51°15.584 2°53.648 3.2804 2.71771 29.122076 2.488563
2005-03-09 07:45:04 51°15.599 2°53.634 3.2668 2.720971 29.157323 2.454853
2005-03-09 07:45:09 51°15.614 2°53.62 3.279 2.72276 29.176 2.421144
2005-03-09 07:45:14 51°15.631 2°53.605 3.2712 2.72276 29.176 2.421144
2005-03-09 07:45:19 51°15.647 2°53.592 3.275 2.724233 29.193377 2.387435
2005-03-09 07:45:23 51°15.659 2°53.581 3.2754 2.724128 29.184863 2.387435
2005-03-09 07:45:29 51°15.677 2°53.565 3.2721 2.723496 29.173379 2.454853
2005-03-09 07:45:34 51°15.692 2°53.552 3.2782 2.725706 29.200245 2.522272
2005-03-09 07:45:39 51°15.708 2°53.538 3.2709 2.723181 29.17208 2.65711
2005-03-09 07:45:44 51°15.721 2°53.526 3.2604 2.723181 29.17208 2.65711
2005-03-09 07:45:48 51°15.733 2°53.515 3.2598 2.726337 29.209308 2.825657
2005-03-09 07:45:54 51°15.753 2°53.499 3.2479 2.726653 29.212222 2.994204
2005-03-09 07:45:59 51°15.768 2°53.485 3.2466 2.726547 29.208556 3.297589
2005-03-09 07:46:04 51°15.782 2°53.474 3.2407 2.725916 29.20111 3.432426
2005-03-09 07:46:09 51°15.799 2°53.459 3.2272 2.72518 29.192424 3.702101
2005-03-09 07:46:14 51°15.814 2°53.446 3.2349 2.72518 29.192424 3.702101
2005-03-09 07:46:18 51°15.826 2°53.435 3.2312 2.726863 29.215513 3.80323
2005-03-09 07:46:24 51°15.843 2°53.42 3.2287 2.726758 29.222361 3.80323
2005-03-09 07:46:28 51°15.855 2°53.409 3.2226 2.724759 29.202818 3.735811
2005-03-09 07:46:34 51°15.874 2°53.392 3.2277 2.726548 29.22959 3.533554
2005-03-09 07:46:39 51°15.889 2°53.379 3.2125 2.726758 29.239363 3.398717
2005-03-09 07:46:44 51°15.905 2°53.366 3.2186 2.726758 29.239363 3.398717
2005-03-09 07:46:49 51°15.918 2°53.355 3.223 2.726653 29.246224 3.263879
2005-03-09 07:46:54 51°15.933 2°53.341 3.2131 2.722024 29.191562 3.027913
2005-03-09 07:46:59 51°15.95 2°53.327 3.2148 2.724549 29.220566 2.960494
2005-03-09 07:47:04 51°15.965 2°53.313 3.2243 2.72518 29.22883 2.859366
2005-03-09 07:47:08 51°15.976 2°53.305 3.2133 2.724654 29.225858 2.758238
2005-03-09 07:47:14 51°15.994 2°53.289 3.214 2.724654 29.225858 2.758238
2005-03-09 07:47:18 51°16.008 2°53.277 3.2116 2.724444 29.229044 2.65711
2005-03-09 07:47:24 51°16.025 2°53.263 3.2139 2.724654 29.233151 2.690819
2005-03-09 07:47:28 51°16.037 2°53.253 3.213 2.72497 29.240122 2.758238
2005-03-09 07:47:34 51°16.056 2°53.236 3.2092 2.724759 29.238447 2.825657
2005-03-09 07:47:39 51°16.07 2°53.223 3.2126 2.724023 29.227315 2.825657
2005-03-09 07:47:44 51°16.086 2°53.21 3.2202 2.724023 29.227315 2.825657
2005-03-09 07:47:48 51°16.098 2°53.199 3.2182 2.724233 29.233043 2.960494
2005-03-09 07:47:54 51°16.115 2°53.185 3.2227 2.723602 29.227206 2.926785
2005-03-09 07:47:59 51°16.132 2°53.172 3.2218 2.722024 29.206132 3.027913
2005-03-09 07:48:04 51°16.146 2°53.16 3.2187 2.722234 29.214288 3.129042
2005-03-09 07:48:09 51°16.163 2°53.146 3.2104 2.722234 29.212668 3.129042
2005-03-09 07:48:14 51°16.178 2°53.134 3.2086 2.722234 29.212668 3.129042
2005-03-09 07:48:19 51°16.192 2°53.122 3.2073 2.724023 29.230557 3.19646
2005-03-09 07:48:24 51°16.207 2°53.109 3.2086 2.724654 29.237204 3.297589
2005-03-09 07:48:28 51°16.219 2°53.099 3.2089 2.725601 29.24758 3.331298
2005-03-09 07:48:34 51°16.237 2°53.085 3.2038 2.723497 29.221911 3.432426
2005-03-09 07:48:39 51°16.254 2°53.07 3.2133 2.723918 29.230935 3.432426
2005-03-09 07:48:44 51°16.268 2°53.059 3.2092 2.723918 29.230935 3.432426
2005-03-09 07:48:49 51°16.282 2°53.047 3.2068 2.724654 29.244502 3.499845
2005-03-09 07:48:54 51°16.298 2°53.034 3.2137 2.726232 29.267211 3.499845
2005-03-09 07:48:58 51°16.312 2°53.022 3.2102 2.725601 29.260561 3.533554
2005-03-09 07:49:04 51°16.329 2°53.008 3.1975 2.723918 29.239043 3.567264
2005-03-09 07:49:08 51°16.341 2°52.998 3.1994 2.724654 29.246124 3.634683
2005-03-09 07:49:14 51°16.359 2°52.982 3.1944 2.724654 29.246124 3.634683
2005-03-09 07:49:19 51°16.374 2°52.97 3.2082 2.725391 29.25564 3.634683
2005-03-09 07:49:24 51°16.389 2°52.957 3.202 2.726232 29.265587 3.735811
2005-03-09 07:49:29 51°16.405 2°52.944 3.1979 2.721077 29.206285 3.80323
2005-03-09 07:49:34 51°16.422 2°52.931 3.2096 2.724654 29.248558 3.870648
2005-03-09 07:49:39 51°16.435 2°52.919 3.2175 2.727074 29.280409 3.870648
2005-03-09 07:49:44 51°16.451 2°52.907 3.1966 2.727074 29.280409 3.870648
2005-03-09 07:49:48 51°16.463 2°52.897 3.197 2.72497 29.258782 3.904358
2005-03-09 07:49:54 51°16.483 2°52.88 3.1956 2.726443 29.276195 4.005486
2005-03-09 07:49:58 51°16.496 2°52.87 3.2143 2.724865 29.256726 3.971777
2005-03-09 07:50:04 51°16.512 2°52.857 3.1971 2.725496 29.264189 4.072905
2005-03-09 07:50:09 51°16.53 2°52.842 3.2026 2.725812 29.265484 4.174033
2005-03-09 07:50:14 51°16.543 2°52.83 3.1924 2.725812 29.265484 4.174033
2005-03-09 07:50:19 51°16.56 2°52.816 3.1827 2.72497 29.256347 4.443708
2005-03-09 07:50:24 51°16.574 2°52.804 3.186 2.72518 29.264518 4.443708
2005-03-09 07:50:29 51°16.59 2°52.791 3.1831 2.722655 29.234666 4.645965
2005-03-09 07:50:34 51°16.605 2°52.778 3.1877 2.725286 29.266574 4.679674
2005-03-09 07:50:38 51°16.617 2°52.769 3.1811 2.726232 29.276957 4.747093
2005-03-09 07:50:44 51°16.634 2°52.755 3.1767 2.726232 29.276957 4.747093
2005-03-09 07:50:49 51°16.651 2°52.742 3.1884 2.724023 29.249212 4.645965
2005-03-09 07:50:54 51°16.666 2°52.728 3.1849 2.726759 29.286428 4.747093
2005-03-09 07:50:59 51°16.681 2°52.716 3.1832 2.726969 29.293794 4.747093
2005-03-09 07:51:04 51°16.695 2°52.705 3.1825 2.726338 29.287954 4.780802
2005-03-09 07:51:08 51°16.707 2°52.695 3.1809 2.726338 29.290393 4.88193
2005-03-09 07:51:14 51°16.726 2°52.678 3.185 2.726338 29.290393 4.88193
2005-03-09 07:51:19 51°16.741 2°52.664 3.1972 2.726653 29.296567 5.016768
2005-03-09 07:51:24 51°16.755 2°52.653 3.1912 2.723392 29.259612 4.848221
2005-03-09 07:51:28 51°16.767 2°52.642 3.1875 2.726653 29.298194 4.88193
2005-03-09 07:51:34 51°16.786 2°52.627 3.2068 2.726022 29.292353 4.983059
2005-03-09 07:51:39 51°16.801 2°52.615 3.2036 2.728442 29.320169 4.814512
2005-03-09 07:51:44 51°16.815 2°52.603 3.187 2.728442 29.320169 4.814512
2005-03-09 07:51:49 51°16.829 2°52.591 3.1817 2.727179 29.30279 4.848221
2005-03-09 07:51:54 51°16.844 2°52.578 3.1802 2.725496 29.276374 4.983059
2005-03-09 07:51:58 51°16.857 2°52.567 3.1829 2.728758 29.311695 4.949349
2005-03-09 07:52:03 51°16.872 2°52.554 3.1792 2.728547 29.308393 5.016768
2005-03-09 07:52:09 51°16.889 2°52.541 3.1829 2.729073 29.310547 4.949349
2005-03-09 07:52:14 51°16.904 2°52.527 3.1848 2.729073 29.310547 4.949349
2005-03-09 07:52:18 51°16.917 2°52.515 3.1865 2.730336 29.329547 5.016768
2005-03-09 07:52:25 51°16.937 2°52.498 3.1968 2.728652 29.314519 4.91564
2005-03-09 07:52:28 51°16.948 2°52.489 3.1851 2.731704 29.356317 4.91564
2005-03-09 07:52:34 51°16.965 2°52.473 3.1853 2.731178 29.350092 4.747093
2005-03-09 07:52:39 51°16.978 2°52.462 3.1824 2.731914 29.360437 4.679674
2005-03-09 07:52:44 51°16.993 2°52.449 3.1862 2.731914 29.360437 4.679674
2005-03-09 07:52:50 51°17.011 2°52.433 3.1795 2.732651 29.369968 4.544836
2005-03-09 07:52:54 51°17.023 2°52.423 3.1808 2.73223 29.361726 4.443708
2005-03-09 07:52:59 51°17.038 2°52.409 3.1852 2.731177 29.348462 4.511127
2005-03-09 07:53:04 51°17.052 2°52.397 3.1852 2.73265 29.365076 4.511127
2005-03-09 07:53:08 51°17.064 2°52.386 3.1889 2.731283 29.350522 4.544836
2005-03-09 07:53:14 51°17.083 2°52.37 3.1984 2.731283 29.350522 4.544836
2005-03-09 07:53:19 51°17.097 2°52.357 3.2063 2.732861 29.370827 4.544836
2005-03-09 07:53:24 51°17.112 2°52.344 3.2073 2.733703 29.381604 4.713383
2005-03-09 07:53:30 51°17.131 2°52.331 3.2056 2.729599 29.333862 4.780802
2005-03-09 07:53:34 51°17.146 2°52.323 3.2061 2.733071 29.372502 4.88193
2005-03-09 07:53:38 51°17.158 2°52.317 3.2217 2.731072 29.346403 5.016768
2005-03-09 07:53:44 51°17.176 2°52.31 3.2234 2.731072 29.346403 5.016768
2005-03-09 07:53:49 51°17.193 2°52.304 3.2128 2.730651 29.33898 5.286443
2005-03-09 07:53:54 51°17.208 2°52.299 3.2112 2.731177 29.338688 5.353862
2005-03-09 07:53:59 51°17.226 2°52.294 3.2173 2.730756 29.327199 5.320153
2005-03-09 07:54:04 51°17.24 2°52.291 3.2208 2.730756 29.327199 5.4887
2005-03-09 07:54:08 51°17.256 2°52.287 3.2165 2.728652 29.29744 5.45499
2005-03-09 07:54:14 51°17.273 2°52.282 3.2123 2.728652 29.29744 5.45499
2005-03-09 07:54:19 51°17.292 2°52.279 3.2158 2.727179 29.275155 5.421281
2005-03-09 07:54:24 51°17.308 2°52.278 3.2154 2.729494 29.303326 5.589828
2005-03-09 07:54:28 51°17.321 2°52.277 3.2194 2.729704 29.307439 5.45499
2005-03-09 07:54:34 51°17.338 2°52.278 3.2228 2.729073 29.296726 5.556118
2005-03-09 07:54:39 51°17.357 2°52.278 3.2151 2.7276 29.280129 5.522409
2005-03-09 07:54:44 51°17.372 2°52.28 3.221 2.7276 29.280129 5.522409
2005-03-09 07:54:49 51°17.389 2°52.281 3.2151 2.729599 29.305382 5.45499
2005-03-09 07:54:54 51°17.406 2°52.283 3.22 2.727179 29.277591 5.45499
2005-03-09 07:54:59 51°17.422 2°52.284 3.2187 2.729283 29.301651 5.353862
2005-03-09 07:55:04 51°17.436 2°52.285 3.2142 2.728863 29.294239 5.522409
2005-03-09 07:55:10 51°17.456 2°52.287 3.217 2.726443 29.264827 5.4887
2005-03-09 07:55:14 51°17.471 2°52.288 3.2185 2.726443 29.264827 5.4887
2005-03-09 07:55:19 51°17.485 2°52.29 3.2153 2.727284 29.276398 5.589828
2005-03-09 07:55:24 51°17.501 2°52.29 3.2183 2.726864 29.272236 5.4887
2005-03-09 07:55:29 51°17.52 2°52.292 3.2272 2.726127 29.263532 5.556118
2005-03-09 07:55:34 51°17.536 2°52.293 3.2191 2.723602 29.233691 5.556118
2005-03-09 07:55:38 51°17.549 2°52.294 3.2223 2.726022 29.263912 5.556118
2005-03-09 07:55:43 51°17.565 2°52.296 3.2152 2.726022 29.263912 5.556118
2005-03-09 07:55:50 51°17.587 2°52.299 3.221 2.725601 29.258938 5.589828
2005-03-09 07:55:54 51°17.601 2°52.302 3.2202 2.724549 29.245692 5.657247
2005-03-09 07:55:58 51°17.613 2°52.305 3.2202 2.725811 29.261425 5.690956
2005-03-09 07:56:04 51°17.631 2°52.308 3.2233 2.722971 29.227853 5.657247
2005-03-09 07:56:09 51°17.649 2°52.312 3.2218 2.724233 29.241151 5.623537
2005-03-09 07:56:14 51°17.664 2°52.315 3.2231 2.724233 29.241151 5.623537
2005-03-09 07:56:19 51°17.681 2°52.319 3.2263 2.724654 29.246936 5.556118
2005-03-09 07:56:23 51°17.694 2°52.32 3.2322 2.723918 29.238232 5.556118
2005-03-09 07:56:28 51°17.708 2°52.323 3.2224 2.723286 29.229962 5.589828
2005-03-09 07:56:34 51°17.729 2°52.327 3.2256 2.720656 29.197262 5.4887
2005-03-09 07:56:39 51°17.745 2°52.331 3.2265 2.719814 29.186509 5.657247
2005-03-09 07:56:44 51°17.76 2°52.332 3.2293 2.719814 29.186509 5.657247
2005-03-09 07:56:49 51°17.778 2°52.336 3.2238 2.720656 29.198072 5.556118
2005-03-09 07:56:54 51°17.794 2°52.339 3.2229 2.720446 29.195586 5.522409
2005-03-09 07:56:59 51°17.81 2°52.342 3.2307 2.720972 29.197752 5.45499
2005-03-09 07:57:04 51°17.824 2°52.346 3.2328 2.720656 29.195643 5.4887
2005-03-09 07:57:09 51°17.842 2°52.351 3.2363 2.720446 29.193157 5.623537
2005-03-09 07:57:14 51°17.859 2°52.356 3.2356 2.720446 29.193157 5.623537
2005-03-09 07:57:19 51°17.873 2°52.362 3.2404 2.716448 29.143506 5.657247
2005-03-09 07:57:24 51°17.887 2°52.368 3.2444 2.720025 29.185757 5.556118
2005-03-09 07:57:30 51°17.907 2°52.374 3.2377 2.721498 29.205587 5.556118
2005-03-09 07:57:34 51°17.921 2°52.38 3.23 2.719499 29.178734 5.45499
2005-03-09 07:57:39 51°17.937 2°52.385 3.2316 2.724549 29.235961 5.4887
2005-03-09 07:57:44 51°17.951 2°52.391 3.2321 2.724549 29.235961 5.4887
2005-03-09 07:57:48 51°17.963 2°52.395 3.2287 2.721077 29.192518 5.320153
2005-03-09 07:57:54 51°17.983 2°52.402 3.2209 2.719078 29.165675 5.117896
2005-03-09 07:57:59 51°18 2°52.409 3.2214 2.721392 29.190581 4.88193
2005-03-09 07:58:04 51°18.014 2°52.414 3.2244 2.721813 29.200407 4.780802
2005-03-09 07:58:08 51°18.027 2°52.419 3.2275 2.717184 29.14493 4.578546
2005-03-09 07:58:14 51°18.048 2°52.427 3.2331 2.717184 29.14493 4.578546
2005-03-09 07:58:19 51°18.064 2°52.434 3.2397 2.716448 29.138657 4.511127
2005-03-09 07:58:24 51°18.077 2°52.442 3.2286 2.718868 29.172896 4.409999
2005-03-09 07:58:29 51°18.094 2°52.452 3.2325 2.723392 29.229583 4.376289
2005-03-09 07:58:33 51°18.106 2°52.461 3.2339 2.719183 29.179861 4.275161
2005-03-09 07:58:39 51°18.122 2°52.473 3.2367 2.717184 29.156247 4.174033
2005-03-09 07:58:44 51°18.136 2°52.487 3.2418 2.717184 29.156247 4.174033
2005-03-09 07:58:49 51°18.151 2°52.503 3.2389 2.71771 29.158417 4.140324
2005-03-09 07:58:53 51°18.161 2°52.516 3.2423 2.719394 29.172637 4.072905
2005-03-09 07:58:58 51°18.173 2°52.532 3.2434 2.720656 29.189167 4.241452
2005-03-09 07:59:04 51°18.187 2°52.551 3.2386 2.719814 29.178416 4.409999
2005-03-09 07:59:09 51°18.201 2°52.569 3.2344 2.714028 29.107664 4.612255
2005-03-09 07:59:14 51°18.213 2°52.586 3.2357 2.714028 29.107664 4.612255
2005-03-09 07:59:19 51°18.225 2°52.603 3.2318 2.717921 29.151201 4.612255
2005-03-09 07:59:24 51°18.236 2°52.619 3.2305 2.714764 29.111516 4.612255
2005-03-09 07:59:29 51°18.249 2°52.637 3.2374 2.715816 29.123936 4.645965
2005-03-09 07:59:34 51°18.26 2°52.658 3.2437 2.719709 29.169086 4.612255
2005-03-09 07:59:38 51°18.268 2°52.675 3.2306 2.718867 29.162382 4.578546
2005-03-09 07:59:43 51°18.277 2°52.697 3.2333 2.718867 29.162382 4.578546
2005-03-09 07:59:48 51°18.285 2°52.718 3.2466 2.719183 29.169343 4.544836
2005-03-09 07:59:54 51°18.294 2°52.744 3.238 2.71771 29.152758 4.544836
2005-03-09 07:59:59 51°18.303 2°52.77 3.2386 2.717921 29.156859 4.511127
2005-03-09 08:00:04 51°18.309 2°52.792 3.2386 2.718762 29.163565 4.477418
2005-03-09 08:00:08 51°18.315 2°52.811 3.2359 2.717815 29.149959 4.511127
2005-03-09 08:00:14 51°18.326 2°52.841 3.2382 2.717815 29.149959 4.511127
2005-03-09 08:00:19 51°18.333 2°52.864 3.2328 2.718447 29.159029 4.443708
2005-03-09 08:00:24 51°18.34 2°52.885 3.2349 2.719604 29.169461 4.477418
2005-03-09 08:00:28 51°18.346 2°52.904 3.2365 2.718026 29.150019 4.477418
2005-03-09 08:00:34 51°18.356 2°52.933 3.2357 2.717079 29.13884 4.409999
2005-03-09 08:00:38 51°18.362 2°52.954 3.2352 2.715606 29.124681 4.477418
2005-03-09 08:00:44 51°18.37 2°52.98 3.2312 2.715606 29.124681 4.477418
2005-03-09 08:00:49 51°18.379 2°53.006 3.2375 2.718341 29.158595 4.443708
2005-03-09 08:00:54 51°18.385 2°53.028 3.2385 2.718447 29.162263 4.409999
2005-03-09 08:00:58 51°18.393 2°53.049 3.2347 2.717815 29.154809 4.443708
2005-03-09 08:01:04 51°18.402 2°53.074 3.2278 2.712765 29.095986 4.376289
2005-03-09 08:01:09 51°18.41 2°53.098 3.2241 2.714975 29.125303 4.477418
2005-03-09 08:01:14 51°18.418 2°53.121 3.2208 2.714975 29.125303 4.477418
2005-03-09 08:01:19 51°18.427 2°53.144 3.2212 2.712871 29.098842 4.409999
2005-03-09 08:01:24 51°18.434 2°53.167 3.2372 2.713081 29.096485 4.376289
2005-03-09 08:01:29 51°18.444 2°53.192 3.2291 2.715501 29.126669 4.376289
2005-03-09 08:01:34 51°18.451 2°53.212 3.2359 2.716237 29.138596 4.544836
2005-03-09 08:01:38 51°18.458 2°53.234 3.2311 2.71266 29.098778 4.443708
2005-03-09 08:01:44 51°18.467 2°53.259 3.2275 2.71266 29.098778 4.443708
2005-03-09 08:01:49 51°18.477 2°53.284 3.2307 2.714133 29.119401 4.477418
2005-03-09 08:01:54 51°18.486 2°53.307 3.2243 2.714659 29.128845 4.511127
2005-03-09 08:01:59 51°18.493 2°53.327 3.2265 2.716974 29.151336 4.477418
2005-03-09 08:02:04 51°18.502 2°53.35 3.2317 2.71266 29.101199 4.578546
2005-03-09 08:02:09 51°18.51 2°53.376 3.2339 2.716553 29.144748 4.612255
2005-03-09 08:02:14 51°18.517 2°53.397 3.2252 2.716553 29.144748 4.612255
2005-03-09 08:02:19 51°18.526 2°53.422 3.2212 2.715396 29.132696 4.679674
2005-03-09 08:02:24 51°18.534 2°53.443 3.2242 2.71487 29.124868 4.713383
2005-03-09 08:02:30 51°18.543 2°53.469 3.2251 2.718657 29.172028 4.747093
2005-03-09 08:02:34 51°18.55 2°53.491 3.2265 2.712134 29.094987 4.780802
2005-03-09 08:02:38 51°18.557 2°53.509 3.2276 2.716553 29.147173 4.91564
2005-03-09 08:02:44 51°18.566 2°53.535 3.2253 2.716553 29.147173 4.91564
2005-03-09 08:02:48 51°18.571 2°53.552 3.2248 2.712976 29.104119 4.949349
2005-03-09 08:02:54 51°18.581 2°53.58 3.2265 2.71529 29.132262 4.949349
2005-03-09 08:02:59 51°18.588 2°53.603 3.2272 2.713923 29.116108 5.117896
2005-03-09 08:03:04 51°18.597 2°53.626 3.2187 2.716658 29.149224 5.084187
2005-03-09 08:03:08 51°18.604 2°53.647 3.2264 2.713397 29.111511 5.084187
2005-03-09 08:03:14 51°18.613 2°53.671 3.2228 2.713397 29.111511 5.084187
2005-03-09 08:03:19 51°18.622 2°53.695 3.2298 2.714133 29.118593 5.084187
2005-03-09 08:03:24 51°18.629 2°53.715 3.2314 2.716763 29.152893 5.219024
2005-03-09 08:03:28 51°18.636 2°53.737 3.2293 2.714344 29.123502 5.084187
2005-03-09 08:03:34 51°18.645 2°53.764 3.2287 2.710451 29.076722 5.016768
2005-03-09 08:03:39 51°18.652 2°53.785 3.2233 2.716027 29.143385 5.050477
2005-03-09 08:03:44 51°18.659 2°53.81 3.2186 2.716027 29.143385 5.050477
2005-03-09 08:03:49 51°18.667 2°53.83 3.2268 2.716869 29.153327 4.949349
2005-03-09 08:03:54 51°18.674 2°53.853 3.2309 2.712765 29.10567 4.949349
2005-03-09 08:03:59 51°18.683 2°53.879 3.2283 2.713186 29.109833 4.848221
2005-03-09 08:04:04 51°18.69 2°53.902 3.232 2.712239 29.09865 4.747093
2005-03-09 08:04:10 51°18.699 2°53.925 3.2313 2.713712 29.117661 4.645965
2005-03-09 08:04:14 51°18.706 2°53.947 3.2279 2.713712 29.117661 4.645965
2005-03-09 08:04:18 51°18.711 2°53.963 3.2298 2.709399 29.06833 4.645965
2005-03-09 08:04:24 51°18.721 2°53.989 3.2248 2.706243 29.029449 4.511127
2005-03-09 08:04:27 51°18.727 2°54.005 3.2198 2.709083 29.059766 4.34258
2005-03-09 08:04:34 51°18.738 2°54.036 3.2261 2.706032 29.023745 4.207742
2005-03-09 08:04:38 51°18.744 2°54.054 3.2252 2.711293 29.085855 4.072905
2005-03-09 08:04:44 51°18.754 2°54.077 3.2214 2.711293 29.085855 4.072905
2005-03-09 08:04:48 51°18.761 2°54.098 3.2207 2.705506 29.01673 4.072905
2005-03-09 08:04:54 51°18.771 2°54.124 3.2265 2.710451 29.076722 4.174033
2005-03-09 08:04:59 51°18.78 2°54.147 3.2236 2.706348 29.029886 4.241452
2005-03-09 08:05:04 51°18.788 2°54.166 3.2243 2.712871 29.108528 4.275161
2005-03-09 08:05:09 51°18.796 2°54.188 3.2243 2.711924 29.094923 4.308871
2005-03-09 08:05:14 51°18.805 2°54.209 3.2252 2.711924 29.094923 4.308871
2005-03-09 08:05:19 51°18.813 2°54.232 3.2285 2.711082 29.08579 4.443708
2005-03-09 08:05:24 51°18.822 2°54.254 3.2258 2.713923 29.120147 4.511127
2005-03-09 08:05:29 51°18.83 2°54.277 3.2283 2.713186 29.110641 4.544836
2005-03-09 08:05:34 51°18.839 2°54.301 3.2241 2.71266 29.10362 4.612255
2005-03-09 08:05:40 51°18.847 2°54.325 3.2217 2.7074 29.043919 4.679674
2005-03-09 08:05:44 51°18.854 2°54.342 3.2253 2.7074 29.043919 4.679674
2005-03-09 08:05:48 51°18.86 2°54.36 3.2385 2.712345 29.102314 4.780802
2005-03-09 08:05:54 51°18.871 2°54.388 3.2377 2.71266 29.105235 4.848221
2005-03-09 08:05:58 51°18.877 2°54.407 3.2295 2.714449 29.123937 5.050477
2005-03-09 08:06:04 51°18.887 2°54.43 3.2268 2.713081 29.108591 5.016768
2005-03-09 08:06:09 51°18.895 2°54.454 3.2235 2.712345 29.1007 4.949349
2005-03-09 08:06:14 51°18.902 2°54.474 3.2255 2.712345 29.1007 4.949349
2005-03-09 08:06:18 51°18.91 2°54.492 3.2273 2.713607 29.116419 4.983059
2005-03-09 08:06:24 51°18.919 2°54.515 3.2378 2.713607 29.111574 4.747093
2005-03-09 08:06:30 51°18.93 2°54.542 3.2289 2.713607 29.110766 4.578546
2005-03-09 08:06:34 51°18.937 2°54.56 3.2268 2.714133 29.116978 4.376289
2005-03-09 08:06:39 51°18.946 2°54.581 3.2285 2.713607 29.113188 4.207742
2005-03-09 08:06:44 51°18.954 2°54.6 3.2254 2.713607 29.113188 4.207742
2005-03-09 08:06:49 51°18.964 2°54.623 3.2245 2.711924 29.092502 4.039195
2005-03-09 08:06:54 51°18.972 2°54.642 3.2261 2.708242 29.049829 3.904358
2005-03-09 08:06:58 51°18.979 2°54.661 3.2266 2.713607 29.109959 3.76952
2005-03-09 08:07:03 51°18.988 2°54.681 3.2248 2.71003 29.068528 3.668392
2005-03-09 08:07:08 51°18.995 2°54.7 3.2294 2.711819 29.090453 3.702101
2005-03-09 08:07:14 51°19.006 2°54.725 3.2303 2.711819 29.090453 3.702101
2005-03-09 08:07:19 51°19.015 2°54.748 3.2362 2.714449 29.124744 3.634683
2005-03-09 08:07:24 51°19.024 2°54.765 3.23 2.715396 29.137545 3.668392
2005-03-09 08:07:29 51°19.033 2°54.788 3.2311 2.712871 29.10772 3.634683
2005-03-09 08:07:34 51°19.041 2°54.807 3.2258 2.716658 29.152459 3.668392
2005-03-09 08:07:38 51°19.049 2°54.826 3.234 2.716658 29.150841 3.533554
2005-03-09 08:07:43 51°19.058 2°54.847 3.2302 2.716658 29.150841 3.533554
2005-03-09 08:07:49 51°19.068 2°54.872 3.2388 2.710556 29.077965 3.365007
2005-03-09 08:07:54 51°19.075 2°54.89 3.2492 2.71529 29.132262 3.19646
2005-03-09 08:07:59 51°19.085 2°54.914 3.2397 2.714764 29.126049 3.027913
2005-03-09 08:08:04 51°19.091 2°54.933 3.2321 2.715711 29.13804 2.893076
2005-03-09 08:08:09 51°19.101 2°54.955 3.2343 2.71771 29.16327 2.690819
2005-03-09 08:08:14 51°19.109 2°54.975 3.2281 2.71771 29.16327 2.690819
2005-03-09 08:08:19 51°19.118 2°54.999 3.2278 2.716448 29.149164 2.589691
2005-03-09 08:08:24 51°19.126 2°55.017 3.2303 2.718236 29.165439 2.522272
2005-03-09 08:08:29 51°19.135 2°55.04 3.2344 2.718341 29.163447 2.555982
2005-03-09 08:08:34 51°19.143 2°55.059 3.2372 2.703297 28.985023 2.454853
2005-03-09 08:08:39 51°19.152 2°55.081 3.2395 2.698037 28.924558 2.488563
2005-03-09 08:08:44 51°19.16 2°55.102 3.2362 2.698037 28.924558 2.488563
2005-03-09 08:08:49 51°19.17 2°55.124 3.2337 2.715606 29.135181 2.488563
2005-03-09 08:08:54 51°19.177 2°55.144 3.2319 2.716974 29.153761 2.522272
2005-03-09 08:08:58 51°19.185 2°55.163 3.2331 2.719604 29.184023 2.488563
2005-03-09 08:09:03 51°19.192 2°55.184 3.2381 2.716974 29.151336 2.522272
2005-03-09 08:09:09 51°19.203 2°55.21 3.2419 2.722445 29.213533 2.555982
2005-03-09 08:09:14 51°19.21 2°55.229 3.244 2.722445 29.213533 2.555982
2005-03-09 08:09:19 51°19.219 2°55.253 3.2414 2.72276 29.215642 2.555982
2005-03-09 08:09:24 51°19.227 2°55.272 3.2386 2.722339 29.21148 2.6234
2005-03-09 08:09:30 51°19.237 2°55.297 3.2443 2.722971 29.220558 2.555982
2005-03-09 08:09:34 51°19.245 2°55.316 3.2432 2.724759 29.240879 2.589691
2005-03-09 08:09:38 51°19.251 2°55.332 3.2393 2.722445 29.211103 2.6234
2005-03-09 08:09:44 51°19.261 2°55.356 3.24 2.722445 29.211103 2.6234
2005-03-09 08:09:48 51°19.268 2°55.372 3.242 2.723391 29.219048 2.6234
2005-03-09 08:09:54 51°19.28 2°55.399 3.2377 2.724759 29.236015 2.522272
2005-03-09 08:09:59 51°19.287 2°55.42 3.2484 2.72013 29.182953 2.589691
2005-03-09 08:10:03 51°19.294 2°55.437 3.252 2.721393 29.196246 2.488563
2005-03-09 08:10:07 51°19.301 2°55.455 3.2442 2.723286 29.217805 2.488563
2005-03-09 08:10:14 51°19.313 2°55.485 3.2446 2.723286 29.217805 2.488563
2005-03-09 08:10:18 51°19.32 2°55.502 3.2365 2.723602 29.222343 2.454853
2005-03-09 08:10:24 51°19.329 2°55.525 3.2337 2.722129 29.204945 2.421144
2005-03-09 08:10:29 51°19.339 2°55.548 3.2349 2.721708 29.199974 2.454853
2005-03-09 08:10:34 51°19.348 2°55.57 3.2364 2.722024 29.201273 2.421144
2005-03-09 08:10:38 51°19.355 2°55.587 3.2373 2.721392 29.193009 2.421144
2005-03-09 08:10:44 51°19.364 2°55.611 3.2327 2.721392 29.193009 2.421144
2005-03-09 08:10:49 51°19.374 2°55.635 3.24 2.719288 29.168968 2.454853
2005-03-09 08:10:54 51°19.383 2°55.656 3.2331 2.722865 29.214454 2.454853
2005-03-09 08:10:59 51°19.391 2°55.678 3.2315 2.719499 29.177116 2.555982
2005-03-09 08:11:04 51°19.399 2°55.697 3.222 2.720867 29.19489 2.65711
2005-03-09 08:11:08 51°19.407 2°55.713 3.2254 2.720867 29.19489 2.724529
2005-03-09 08:11:14 51°19.418 2°55.742 3.2358 2.720867 29.19489 2.724529
2005-03-09 08:11:19 51°19.425 2°55.762 3.2283 2.718131 29.162579 2.825657
2005-03-09 08:11:24 51°19.435 2°55.785 3.2307 2.716448 29.141081 2.960494
2005-03-09 08:11:28 51°19.442 2°55.801 3.2319 2.721603 29.201161 2.960494
2005-03-09 08:11:34 51°19.454 2°55.828 3.2328 2.71771 29.159226 3.129042
2005-03-09 08:11:39 51°19.463 2°55.85 3.2332 2.720656 29.196453 3.19646
2005-03-09 08:11:44 51°19.471 2°55.87 3.2334 2.720656 29.196453 3.19646
2005-03-09 08:11:48 51°19.48 2°55.888 3.2399 2.718868 29.175323 3.297589
2005-03-09 08:11:54 51°19.491 2°55.914 3.2325 2.715816 29.138475 3.432426
2005-03-09 08:12:00 51°19.5 2°55.937 3.2366 2.721077 29.200615 3.432426
2005-03-09 08:12:04 51°19.507 2°55.956 3.2461 2.71992 29.183705 3.533554
2005-03-09 08:12:09 51°19.516 2°55.98 3.2373 2.720867 29.1957 3.634683
2005-03-09 08:12:14 51°19.525 2°55.999 3.2396 2.720867 29.1957 3.634683
2005-03-09 08:12:18 51°19.532 2°56.016 3.2334 2.720025 29.184138 3.567264
2005-03-09 08:12:24 51°19.543 2°56.042 3.2416 2.721603 29.201161 3.634683
2005-03-09 08:12:27 51°19.549 2°56.058 3.2425 2.716869 29.145243 3.702101
2005-03-09 08:12:34 51°19.561 2°56.085 3.2451 2.716237 29.138596 3.668392
2005-03-09 08:12:38 51°19.569 2°56.105 3.2403 2.718341 29.161021 3.735811
2005-03-09 08:12:44 51°19.579 2°56.129 3.2386 2.718341 29.161021 3.735811
2005-03-09 08:12:49 51°19.589 2°56.152 3.2386 2.720761 29.192028 3.904358
2005-03-09 08:12:54 51°19.597 2°56.171 3.2423 2.720972 29.194514 3.76952
2005-03-09 08:12:59 51°19.605 2°56.194 3.2451 2.722445 29.211103 3.76952
2005-03-09 08:13:04 51°19.615 2°56.216 3.2416 2.721919 29.20246 3.870648
2005-03-09 08:13:09 51°19.624 2°56.24 3.2379 2.723918 29.225262 3.836939
2005-03-09 08:13:14 51°19.632 2°56.259 3.2357 2.723918 29.225262 3.836939
2005-03-09 08:13:19 51°19.642 2°56.281 3.2359 2.723076 29.21613 3.904358
2005-03-09 08:13:24 51°19.65 2°56.301 3.2447 2.721182 29.193761 4.005486
2005-03-09 08:13:29 51°19.659 2°56.328 3.2373 2.718973 29.165241 4.072905
2005-03-09 08:13:34 51°19.668 2°56.346 3.2357 2.723391 29.216618 4.140324
2005-03-09 08:13:39 51°19.677 2°56.371 3.233 2.721287 29.193385 4.275161
2005-03-09 08:13:44 51°19.687 2°56.389 3.2386 2.721287 29.193385 4.275161
2005-03-09 08:13:48 51°19.694 2°56.407 3.2387 2.72276 29.214021 4.409999
2005-03-09 08:13:54 51°19.705 2°56.435 3.2395 2.724444 29.233907 4.511127
2005-03-09 08:13:58 51°19.712 2°56.454 3.2357 2.712345 29.089404 4.612255
2005-03-09 08:14:03 51°19.72 2°56.475 3.2399 2.722655 29.211969 4.612255
2005-03-09 08:14:09 51°19.731 2°56.501 3.2413 2.723181 29.218993 4.578546
2005-03-09 08:14:14 51°19.737 2°56.523 3.2384 2.72518 29.243419 4.511127
2005-03-09 08:14:20 51°19.749 2°56.548 3.2384 2.72518 29.243419 4.511127
2005-03-09 08:14:24 51°19.756 2°56.566 3.2396 2.722024 29.202893 4.409999
2005-03-09 08:14:29 51°19.765 2°56.588 3.239 2.72013 29.178908 4.174033
2005-03-09 08:14:34 51°19.776 2°56.612 3.2391 2.722234 29.206188 4.039195
2005-03-09 08:14:40 51°19.785 2°56.636 3.2364 2.725285 29.241418 3.904358
2005-03-09 08:14:44 51°19.794 2°56.656 3.2418 2.725285 29.241418 3.904358
2005-03-09 08:14:49 51°19.803 2°56.678 3.2395 2.722234 29.205378 3.80323
2005-03-09 08:14:54 51°19.811 2°56.696 3.2404 2.724338 29.230233 3.735811
2005-03-09 08:14:59 51°19.82 2°56.719 3.2434 2.721919 29.200031 3.634683
2005-03-09 08:15:04 51°19.83 2°56.741 3.2376 2.722445 29.207863 3.702101
2005-03-09 08:15:09 51°19.839 2°56.765 3.235 2.72255 29.209106 3.702101
2005-03-09 08:15:14 51°19.848 2°56.786 3.233 2.72255 29.209106 3.702101
2005-03-09 08:15:18 51°19.855 2°56.804 3.2296 2.716027 29.132072 3.668392
2005-03-09 08:15:24 51°19.865 2°56.829 3.2339 2.716132 29.133315 4.039195
2005-03-09 08:15:29 51°19.875 2°56.852 3.2342 2.714764 29.117166 3.76952
2005-03-09 08:15:34 51°19.883 2°56.871 3.2411 2.72034 29.182202 3.80323
2005-03-09 08:15:39 51°19.891 2°56.893 3.2339 2.718236 29.159778 3.76952
2005-03-09 08:15:44 51°19.901 2°56.914 3.2344 2.718236 29.159778 3.76952
2005-03-09 08:15:50 51°19.911 2°56.941 3.2364 2.720551 29.189543 3.668392
2005-03-09 08:15:54 51°19.92 2°56.96 3.2343 2.719499 29.179543 3.668392
2005-03-09 08:15:58 51°19.926 2°56.978 3.2324 2.719604 29.179977 3.600973
2005-03-09 08:16:04 51°19.936 2°57.001 3.2306 2.719078 29.171336 3.533554
2005-03-09 08:16:09 51°19.946 2°57.024 3.2354 2.719604 29.178358 3.499845
2005-03-09 08:16:14 51°19.954 2°57.047 3.2334 2.719604 29.178358 3.499845
2005-03-09 08:16:19 51°19.964 2°57.068 3.2337 2.716448 29.141889 3.432426
2005-03-09 08:16:23 51°19.971 2°57.087 3.2291 2.716132 29.135738 3.263879
2005-03-09 08:16:30 51°19.982 2°57.115 3.2333 2.715922 29.135677 3.23017
2005-03-09 08:16:34 51°19.989 2°57.132 3.2275 2.712134 29.091759 2.994204
2005-03-09 08:16:39 51°19.999 2°57.156 3.2272 2.714133 29.114556 2.960494
2005-03-09 08:16:44 51°20.008 2°57.176 3.2321 2.714133 29.114556 2.960494
2005-03-09 08:16:49 51°20.016 2°57.199 3.2455 2.713397 29.106667 2.859366
2005-03-09 08:16:54 51°20.023 2°57.219 3.2343 2.716237 29.141829 2.791947
2005-03-09 08:16:59 51°20.034 2°57.243 3.2247 2.713397 29.109896 2.690819
2005-03-09 08:17:04 51°20.042 2°57.263 3.224 2.71003 29.070947 2.65711
2005-03-09 08:17:09 51°20.05 2°57.285 3.2291 2.709399 29.061881 2.6234
2005-03-09 08:17:14 51°20.06 2°57.308 3.2263 2.709399 29.061881 2.6234
2005-03-09 08:17:18 51°20.067 2°57.326 3.2246 2.708768 29.054428 2.825657
2005-03-09 08:17:24 51°20.076 2°57.35 3.2265 2.716132 29.13897 2.555982
2005-03-09 08:17:29 51°20.086 2°57.375 3.223 2.71529 29.126607 2.6234
2005-03-09 08:17:34 51°20.096 2°57.396 3.2246 2.710872 29.080079 2.65711
2005-03-09 08:17:39 51°20.104 2°57.417 3.2297 2.714344 29.123502 2.6234
2005-03-09 08:17:44 51°20.111 2°57.438 3.226 2.714344 29.123502 2.6234
2005-03-09 08:17:48 51°20.12 2°57.454 3.224 2.716343 29.147922 2.589691
2005-03-09 08:17:54 51°20.13 2°57.48 3.2252 2.707295 29.039455 2.6234
2005-03-09 08:17:59 51°20.14 2°57.505 3.2269 2.706979 29.03895 2.6234
2005-03-09 08:18:04 51°20.148 2°57.524 3.2208 2.709609 29.071622 2.65711
2005-03-09 08:18:08 51°20.156 2°57.545 3.222 2.712239 29.101072 2.65711
2005-03-09 08:18:14 51°20.166 2°57.57 3.223 2.712239 29.101072 2.65711
2005-03-09 08:18:18 51°20.172 2°57.585 3.223 2.714238 29.122259 2.758238
2005-03-09 08:18:24 51°20.183 2°57.612 3.2281 2.712555 29.103185 2.791947
2005-03-09 08:18:29 51°20.193 2°57.636 3.2268 2.714028 29.121389 2.893076
2005-03-09 08:18:34 51°20.201 2°57.656 3.2178 2.709504 29.069573 2.960494
2005-03-09 08:18:40 51°20.211 2°57.683 3.2216 2.713186 29.113871 3.027913
2005-03-09 08:18:44 51°20.219 2°57.701 3.2246 2.713186 29.113871 3.027913
2005-03-09 08:18:49 51°20.226 2°57.722 3.2296 2.712976 29.10977 2.994204
2005-03-09 08:18:54 51°20.236 2°57.745 3.2272 2.713712 29.119277 3.027913
2005-03-09 08:18:58 51°20.244 2°57.765 3.2272 2.714028 29.123005 3.027913
2005-03-09 08:19:04 51°20.253 2°57.788 3.2255 2.713923 29.121762 3.061623
2005-03-09 08:19:09 51°20.262 2°57.811 3.2131 2.713292 29.115921 3.095332
2005-03-09 08:19:14 51°20.272 2°57.835 3.2157 2.713292 29.115921 3.095332
2005-03-09 08:19:19 51°20.281 2°57.858 3.2163 2.714344 29.129965 3.095332
2005-03-09 08:19:24 51°20.29 2°57.88 3.2198 2.713292 29.115921 3.027913
2005-03-09 08:19:29 51°20.297 2°57.899 3.2179 2.714344 29.131582 3.095332
2005-03-09 08:19:34 51°20.307 2°57.921 3.2196 2.711608 29.100881 3.027913
2005-03-09 08:19:39 51°20.316 2°57.944 3.2173 2.711187 29.093488 2.960494
2005-03-09 08:19:44 51°20.325 2°57.965 3.2214 2.711187 29.093488 2.960494
2005-03-09 08:19:48 51°20.332 2°57.983 3.2172 2.715501 29.146064 2.926785
2005-03-09 08:19:54 51°20.344 2°58.011 3.2158 2.7074 29.051172 2.994204
2005-03-09 08:19:58 51°20.352 2°58.029 3.2255 2.708978 29.067392 3.095332
2005-03-09 08:20:04 51°20.362 2°58.053 3.2213 2.710556 29.086032 2.893076
2005-03-09 08:20:09 51°20.372 2°58.078 3.2274 2.713923 29.125802 2.926785
2005-03-09 08:20:14 51°20.381 2°58.1 3.2284 2.713923 29.125802 2.926785
2005-03-09 08:20:19 51°20.39 2°58.123 3.217 2.710977 29.09181 2.859366
2005-03-09 08:20:24 51°20.398 2°58.143 3.2173 2.708347 29.059937 2.893076
2005-03-09 08:20:29 51°20.408 2°58.168 3.2225 2.71266 29.113311 2.994204
2005-03-09 08:20:34 51°20.418 2°58.19 3.2162 2.711293 29.093924 2.893076
2005-03-09 08:20:39 51°20.427 2°58.213 3.2175 2.710977 29.089389 2.893076
2005-03-09 08:20:44 51°20.436 2°58.236 3.2161 2.710977 29.089389 2.893076
2005-03-09 08:20:49 51°20.445 2°58.259 3.2189 2.706769 29.037271 2.893076
2005-03-09 08:20:54 51°20.454 2°58.281 3.2244 2.70982 29.076527 2.926785
2005-03-09 08:20:58 51°20.461 2°58.299 3.2194 2.707821 29.053724 2.825657
2005-03-09 08:21:04 51°20.472 2°58.326 3.2215 2.708136 29.058258 2.791947
2005-03-09 08:21:08 51°20.48 2°58.342 3.2219 2.708242 29.0595 2.859366
2005-03-09 08:21:14 51°20.49 2°58.369 3.2174 2.708242 29.0595 2.859366
2005-03-09 08:21:19 51°20.501 2°58.393 3.2109 2.704033 29.010607 2.859366
2005-03-09 08:21:24 51°20.509 2°58.414 3.2139 2.705401 29.025953 2.893076
2005-03-09 08:21:29 51°20.52 2°58.438 3.2085 2.70498 29.020178 2.994204
2005-03-09 08:21:34 51°20.528 2°58.461 3.2128 2.70477 29.017694 2.994204
2005-03-09 08:21:38 51°20.537 2°58.478 3.2181 2.704559 29.014404 2.994204
2005-03-09 08:21:45 51°20.548 2°58.509 3.2196 2.704559 29.014404 2.994204
2005-03-09 08:21:48 51°20.555 2°58.524 3.2154 2.697931 28.938563 3.061623
2005-03-09 08:21:54 51°20.565 2°58.548 3.2115 2.699404 28.958361 3.095332
2005-03-09 08:21:59 51°20.574 2°58.57 3.2102 2.701824 28.988541 3.162751
2005-03-09 08:22:04 51°20.583 2°58.593 3.2151 2.705085 29.029475 3.162751
2005-03-09 08:22:09 51°20.593 2°58.617 3.2156 2.703718 29.010905 3.19646
2005-03-09 08:22:14 51°20.602 2°58.64 3.2121 2.703718 29.010905 3.19646
2005-03-09 08:22:19 51°20.612 2°58.663 3.21 2.702561 28.996433 3.297589
2005-03-09 08:22:24 51°20.621 2°58.685 3.2136 2.701193 28.980283 3.365007
2005-03-09 08:22:30 51°20.631 2°58.709 3.2073 2.701403 28.983572 3.398717
2005-03-09 08:22:34 51°20.64 2°58.728 3.2139 2.704454 29.020408 3.499845
2005-03-09 08:22:38 51°20.646 2°58.747 3.2169 2.705085 29.027058 3.567264
2005-03-09 08:22:43 51°20.656 2°58.769 3.2113 2.705085 29.027058 3.567264
2005-03-09 08:22:49 51°20.666 2°58.795 3.2043 2.703823 29.012953 3.735811
2005-03-09 08:22:54 51°20.676 2°58.819 3.2096 2.709189 29.077945 3.735811
2005-03-09 08:22:59 51°20.683 2°58.841 3.2094 2.705296 29.03196 3.80323
2005-03-09 08:23:04 51°20.693 2°58.862 3.2104 2.704033 29.017048 3.971777
2005-03-09 08:23:09 51°20.702 2°58.884 3.2238 2.703297 29.00835 3.971777
2005-03-09 08:23:14 51°20.712 2°58.907 3.2177 2.703297 29.00835 3.971777
2005-03-09 08:23:19 51°20.721 2°58.932 3.2116 2.705401 29.034009 3.971777
2005-03-09 08:23:24 51°20.729 2°58.952 3.2119 2.710135 29.092361 4.072905
2005-03-09 08:23:28 51°20.736 2°58.97 3.2081 2.708557 29.073715 4.072905
2005-03-09 08:23:34 51°20.747 2°58.999 3.2079 2.704875 29.027795 4.039195
2005-03-09 08:23:40 51°20.759 2°59.024 3.2135 2.699825 28.965741 3.971777
2005-03-09 08:23:44 51°20.766 2°59.044 3.2107 2.699825 28.965741 3.971777
2005-03-09 08:23:49 51°20.775 2°59.067 3.2147 2.707295 29.052348 3.938067
2005-03-09 08:23:54 51°20.783 2°59.086 3.2151 2.709083 29.074281 3.938067
2005-03-09 08:23:59 51°20.793 2°59.111 3.2096 2.710977 29.097461 3.836939
2005-03-09 08:24:04 51°20.802 2°59.132 3.2128 2.709609 29.083724 3.76952
2005-03-09 08:24:08 51°20.81 2°59.15 3.2166 2.710556 29.094911 3.870648
2005-03-09 08:24:14 51°20.821 2°59.174 3.2184 2.710556 29.094911 3.870648
2005-03-09 08:24:18 51°20.828 2°59.196 3.222 2.71003 29.089503 3.735811
2005-03-09 08:24:24 51°20.839 2°59.219 3.2112 2.709504 29.082481 3.702101
2005-03-09 08:24:29 51°20.849 2°59.245 3.2079 2.710241 29.090375 3.668392
2005-03-09 08:24:34 51°20.859 2°59.266 3.2122 2.706664 29.048922 3.702101
2005-03-09 08:24:39 51°20.868 2°59.288 3.2079 2.710451 29.092053 3.80323
2005-03-09 08:24:44 51°20.878 2°59.31 3.2104 2.710451 29.092053 3.80323
2005-03-09 08:24:49 51°20.887 2°59.333 3.2127 2.710241 29.08876 3.80323
2005-03-09 08:24:54 51°20.896 2°59.355 3.21 2.709925 29.084224 3.735811
2005-03-09 08:24:59 51°20.904 2°59.377 3.2096 2.707084 29.053893 3.702101
2005-03-09 08:25:04 51°20.913 2°59.397 3.2172 2.71003 29.090311 3.76952
2005-03-09 08:25:08 51°20.922 2°59.418 3.2176 2.70982 29.08621 3.668392
2005-03-09 08:25:14 51°20.932 2°59.445 3.2051 2.70982 29.08621 3.668392
2005-03-09 08:25:18 51°20.94 2°59.463 3.2079 2.70982 29.087017 3.668392
2005-03-09 08:25:24 51°20.95 2°59.487 3.2088 2.708978 29.076266 3.702101
2005-03-09 08:25:29 51°20.961 2°59.511 3.2081 2.709609 29.083724 3.735811
2005-03-09 08:25:34 51°20.969 2°59.534 3.2107 2.710451 29.092861 3.76952
2005-03-09 08:25:39 51°20.979 2°59.553 3.2118 2.71003 29.087889 3.870648
2005-03-09 08:25:43 51°20.986 2°59.574 3.2101 2.71003 29.087889 3.870648
2005-03-09 08:25:48 51°20.995 2°59.593 3.2073 2.710661 29.09777 3.80323
2005-03-09 08:25:54 51°21.006 2°59.621 3.2079 2.710451 29.096091 3.870648
2005-03-09 08:25:59 51°21.016 2°59.645 3.2084 2.710135 29.093169 3.870648
2005-03-09 08:26:04 51°21.025 2°59.667 3.2096 2.710977 29.102307 3.80323
2005-03-09 08:26:09 51°21.035 2°59.689 3.2106 2.711188 29.104793 3.76952
2005-03-09 08:26:14 51°21.043 2°59.709 3.2156 2.711188 29.104793 3.76952
2005-03-09 08:26:19 51°21.053 2°59.734 3.2142 2.711819 29.112253 3.80323
2005-03-09 08:26:22 51°21.059 2°59.748 3.2184 2.712134 29.116791 3.836939
2005-03-09 08:26:30 51°21.072 2°59.782 3.2147 2.712976 29.126737 3.836939
2005-03-09 08:26:34 51°21.079 2°59.8 3.2096 2.713607 29.133389 3.870648
2005-03-09 08:26:39 51°21.088 2°59.823 3.2143 2.714344 29.142093 3.870648
2005-03-09 08:26:44 51°21.097 2°59.846 3.2131 2.714344 29.142093 3.870648
2005-03-09 08:26:49 51°21.106 2°59.868 3.2161 2.71487 29.146692 3.904358
2005-03-09 08:26:54 51°21.116 2°59.893 3.2217 2.713923 29.133076 3.870648
2005-03-09 08:26:59 51°21.124 2°59.913 3.2166 2.716343 29.160054 3.938067
2005-03-09 08:27:04 51°21.134 2°59.937 3.2177 2.716974 29.167514 3.904358
2005-03-09 08:27:09 51°21.144 2°59.961 3.2232 2.716027 29.156324 3.870648
2005-03-09 08:27:14 51°21.152 2°59.985 3.2171 2.716027 29.156324 3.870648
2005-03-09 08:27:19 51°21.162 3°0.007 3.2163 2.717921 29.180324 3.80323
2005-03-09 08:27:23 51°21.169 3°0.025 3.2139 2.716448 29.161297 3.76952
2005-03-09 08:27:28 51°21.177 3°0.045 3.2165 2.718447 29.183302 3.735811
2005-03-09 08:27:34 51°21.189 3°0.074 3.2174 2.718868 29.189896 3.80323
2005-03-09 08:27:38 51°21.196 3°0.092 3.218 2.719183 29.192816 3.76952
2005-03-09 08:27:44 51°21.207 3°0.117 3.2202 2.719183 29.192816 3.76952
2005-03-09 08:27:48 51°21.216 3°0.137 3.217 2.718026 29.178329 3.80323
2005-03-09 08:27:54 51°21.226 3°0.165 3.2266 2.719709 29.197413 3.80323
2005-03-09 08:27:59 51°21.235 3°0.187 3.2218 2.71992 29.20071 3.80323
2005-03-09 08:28:04 51°21.243 3°0.207 3.2198 2.720656 29.210226 3.76952
2005-03-09 08:28:08 51°21.251 3°0.225 3.2218 2.720551 29.209793 3.870648
2005-03-09 08:28:14 51°21.262 3°0.251 3.2195 2.720551 29.209793 3.870648
2005-03-09 08:28:19 51°21.271 3°0.275 3.2187 2.721182 29.216444 3.80323
2005-03-09 08:28:24 51°21.28 3°0.298 3.2202 2.721603 29.221418 3.938067
2005-03-09 08:28:28 51°21.287 3°0.316 3.2241 2.721814 29.221473 3.836939
2005-03-09 08:28:34 51°21.299 3°0.345 3.2228 2.720341 29.202443 3.870648
2005-03-09 08:28:39 51°21.307 3°0.366 3.2263 2.723076 29.234773 3.80323
2005-03-09 08:28:44 51°21.318 3°0.391 3.2207 2.723076 29.234773 3.80323
2005-03-09 08:28:48 51°21.323 3°0.407 3.2229 2.723286 29.23726 3.702101
2005-03-09 08:28:54 51°21.335 3°0.433 3.222 2.723813 29.24429 3.76952
2005-03-09 08:28:58 51°21.343 3°0.455 3.2249 2.724023 29.2484 3.80323
2005-03-09 08:29:03 51°21.352 3°0.477 3.2266 2.723918 29.244722 3.735811
2005-03-09 08:29:08 51°21.36 3°0.498 3.2256 2.721919 29.221095 3.702101
2005-03-09 08:29:14 51°21.373 3°0.527 3.2299 2.721919 29.221095 3.702101
2005-03-09 08:29:18 51°21.379 3°0.546 3.2293 2.723602 29.242614 3.702101
2005-03-09 08:29:24 51°21.389 3°0.573 3.2273 2.725391 29.262945 3.735811
2005-03-09 08:29:27 51°21.394 3°0.589 3.231 2.725601 29.266245 3.600973
2005-03-09 08:29:34 51°21.405 3°0.623 3.2305 2.725601 29.262997 3.600973
2005-03-09 08:29:40 51°21.413 3°0.649 3.2357 2.726127 29.268403 3.567264
2005-03-09 08:29:44 51°21.42 3°0.668 3.2283 2.726127 29.268403 3.567264
2005-03-09 08:29:48 51°21.426 3°0.689 3.2288 2.725285 29.256831 3.499845
2005-03-09 08:29:54 51°21.436 3°0.72 3.2331 2.726653 29.271373 3.499845
2005-03-09 08:30:00 51°21.445 3°0.747 3.2313 2.72739 29.280078 3.466136
2005-03-09 08:30:04 51°21.451 3°0.766 3.2292 2.72739 29.278454 3.499845
2005-03-09 08:30:07 51°21.456 3°0.784 3.2357 2.7276 29.279317 3.466136
2005-03-09 08:30:14 51°21.468 3°0.819 3.2329 2.7276 29.279317 3.466136
2005-03-09 08:30:18 51°21.474 3°0.838 3.2405 2.727705 29.281372 3.499845
2005-03-09 08:30:24 51°21.483 3°0.865 3.2363 2.72781 29.281804 3.567264
2005-03-09 08:30:27 51°21.488 3°0.882 3.2386 2.728547 29.288883 3.466136
2005-03-09 08:30:34 51°21.499 3°0.915 3.2452 2.726758 29.270181 3.499845
2005-03-09 08:30:39 51°21.504 3°0.939 3.2392 2.729389 29.300457 3.466136
2005-03-09 08:30:44 51°21.514 3°0.962 3.2368 2.729389 29.300457 3.466136
2005-03-09 08:30:49 51°21.52 3°0.987 3.2407 2.726127 29.260285 3.398717
2005-03-09 08:30:54 51°21.53 3°1.014 3.2414 2.729704 29.300124 3.365007
2005-03-09 08:30:58 51°21.535 3°1.033 3.2449 2.728968 29.287359 3.398717
2005-03-09 08:31:02 51°21.54 3°1.053 3.246 2.730546 29.305195 3.432426
2005-03-09 08:31:09 51°21.55 3°1.089 3.249 2.731282 29.313899 3.499845
2005-03-09 08:31:14 51°21.558 3°1.11 3.2506 2.731282 29.313899 3.499845
2005-03-09 08:31:19 51°21.564 3°1.135 3.2497 2.731598 29.319254 3.499845
2005-03-09 08:31:24 51°21.572 3°1.16 3.2469 2.729704 29.296062 3.466136
2005-03-09 08:31:29 51°21.579 3°1.188 3.2463 2.732334 29.324706 3.499845
2005-03-09 08:31:34 51°21.586 3°1.21 3.2437 2.73244 29.325136 3.499845
2005-03-09 08:31:38 51°21.593 3°1.233 3.2504 2.733702 29.33843 3.499845
2005-03-09 08:31:44 51°21.601 3°1.259 3.2523 2.733702 29.33843 3.499845
2005-03-09 08:31:49 51°21.61 3°1.287 3.2567 2.734544 29.346749 3.466136
2005-03-09 08:31:54 51°21.618 3°1.311 3.2595 2.73528 29.354639 3.432426
2005-03-09 08:31:58 51°21.623 3°1.331 3.257 2.735596 29.359996 3.499845
2005-03-09 08:32:04 51°21.633 3°1.361 3.2632 2.73528 29.35708 3.668392
2005-03-09 08:32:09 51°21.64 3°1.385 3.2578 2.736859 29.374103 3.600973
2005-03-09 08:32:14 51°21.648 3°1.409 3.2545 2.736859 29.374103 3.600973
2005-03-09 08:32:18 51°21.655 3°1.429 3.252 2.736543 29.367931 3.567264
2005-03-09 08:32:24 51°21.663 3°1.456 3.2535 2.738752 29.390783 3.533554
2005-03-09 08:32:29 51°21.671 3°1.482 3.2607 2.738858 29.387954 3.499845
2005-03-09 08:32:34 51°21.678 3°1.506 3.2609 2.73991 29.400386 3.432426
2005-03-09 08:32:39 51°21.686 3°1.532 3.256 2.740646 29.411534 3.432426
2005-03-09 08:32:44 51°21.693 3°1.554 3.2624 2.740646 29.411534 3.432426
2005-03-09 08:32:46 51°21.696 3°1.567 3.2604 2.737911 29.378394 3.533554
2005-03-09 08:32:54 51°21.71 3°1.604 3.2636 2.741067 29.418954 3.533554
2005-03-09 08:32:59 51°21.718 3°1.626 3.2691 2.741804 29.426843 3.567264
2005-03-09 08:33:04 51°21.728 3°1.648 3.2744 2.741488 29.421481 3.567264
2005-03-09 08:33:08 51°21.736 3°1.667 3.2683 2.743066 29.439318 3.466136
2005-03-09 08:33:14 51°21.747 3°1.695 3.2729 2.743066 29.439318 3.466136
2005-03-09 08:33:19 51°21.756 3°1.719 3.2691 2.744855 29.457193 3.533554
2005-03-09 08:33:24 51°21.766 3°1.742 3.2717 2.746328 29.472969 3.398717
2005-03-09 08:33:28 51°21.773 3°1.761 3.272 2.747485 29.485831 3.331298
2005-03-09 08:33:34 51°21.784 3°1.788 3.2695 2.748642 29.496241 3.263879
2005-03-09 08:33:39 51°21.793 3°1.81 3.2809 2.746749 29.472227 3.19646
2005-03-09 08:33:44 51°21.802 3°1.834 3.28 2.746749 29.472227 3.19646
2005-03-09 08:33:49 51°21.811 3°1.854 3.2737 2.750747 29.517841 3.162751
2005-03-09 08:33:54 51°21.821 3°1.877 3.2769 2.751483 29.526546 3.061623
2005-03-09 08:33:59 51°21.831 3°1.896 3.2832 2.752325 29.537313 3.061623
2005-03-09 08:34:04 51°21.842 3°1.917 3.2845 2.753588 29.5506 3.095332
2005-03-09 08:34:08 51°21.852 3°1.937 3.2822 2.754008 29.553937 2.994204
2005-03-09 08:34:14 51°21.865 3°1.96 3.2852 2.754008 29.553937 2.994204
2005-03-09 08:34:18 51°21.873 3°1.978 3.2886 2.75485 29.560611 3.027913
2005-03-09 08:34:24 51°21.884 3°2 3.2936 2.755797 29.575079 2.960494
2005-03-09 08:34:28 51°21.893 3°2.018 3.2914 2.756008 29.575109 2.960494
2005-03-09 08:34:34 51°21.907 3°2.043 3.2874 2.755797 29.570165 3.027913
2005-03-09 08:34:39 51°21.919 3°2.062 3.2913 2.75727 29.585116 2.960494
2005-03-09 08:34:44 51°21.929 3°2.08 3.2937 2.75727 29.585116 2.960494
2005-03-09 08:34:49 51°21.941 3°2.101 3.3 2.757901 29.590939 2.960494
2005-03-09 08:34:54 51°21.953 3°2.123 3.2982 2.75706 29.580991 2.994204
2005-03-09 08:34:58 51°21.963 3°2.137 3.3019 2.758638 29.597184 2.994204
2005-03-09 08:35:04 51°21.977 3°2.157 3.306 2.758953 29.598456 3.027913
2005-03-09 08:35:10 51°21.993 3°2.176 3.3075 2.758638 29.593907 2.994204
2005-03-09 08:35:14 51°22.006 3°2.19 3.3011 2.758638 29.593907 2.994204
2005-03-09 08:35:18 51°22.017 3°2.202 3.3079 2.760111 29.609674 3.162751
2005-03-09 08:35:24 51°22.034 3°2.22 3.317 2.760321 29.609701 3.027913
2005-03-09 08:35:29 51°22.048 3°2.234 3.321 2.761163 29.617188 3.061623
2005-03-09 08:35:34 51°22.062 3°2.246 3.3268 2.761479 29.618458 3.095332
2005-03-09 08:35:38 51°22.074 3°2.259 3.3328 2.762426 29.627186 3.129042
2005-03-09 08:35:43 51°22.089 3°2.273 3.3373 2.762426 29.627186 3.129042
2005-03-09 08:35:49 51°22.105 3°2.289 3.3469 2.763478 29.639617 3.23017
2005-03-09 08:35:54 51°22.117 3°2.302 3.3529 2.764319 29.64628 3.23017
2005-03-09 08:35:58 51°22.13 3°2.317 3.3578 2.765372 29.653787 3.297589
2005-03-09 08:36:04 51°22.147 3°2.333 3.3546 2.766845 29.666264 3.297589
2005-03-09 08:36:08 51°22.158 3°2.345 3.3633 2.768633 29.681645 3.297589
2005-03-09 08:36:14 51°22.172 3°2.361 3.3677 2.768633 29.681645 3.297589
2005-03-09 08:36:19 51°22.188 3°2.376 3.3685 2.771474 29.709447 3.263879
2005-03-09 08:36:24 51°22.199 3°2.388 3.3683 2.773052 29.721513 3.19646
2005-03-09 08:36:28 51°22.213 3°2.402 3.3731 2.773894 29.724057 3.162751
2005-03-09 08:36:34 51°22.229 3°2.418 3.3734 2.775367 29.734874 3.061623
2005-03-09 08:36:39 51°22.242 3°2.432 3.3743 2.777472 29.756426 3.061623
2005-03-09 08:36:44 51°22.256 3°2.445 3.3751 2.777472 29.756426 3.061623
2005-03-09 08:36:49 51°22.271 3°2.461 3.3792 2.778313 29.762251 2.994204
2005-03-09 08:36:54 51°22.284 3°2.473 3.377 2.779892 29.77759 2.893076
2005-03-09 08:36:58 51°22.296 3°2.486 3.3808 2.777892 29.753175 2.859366
2005-03-09 08:37:03 51°22.311 3°2.501 3.3823 2.781154 29.790024 2.825657
2005-03-09 08:37:09 51°22.326 3°2.517 3.3835 2.781891 29.795425 2.724529
2005-03-09 08:37:14 51°22.339 3°2.532 3.3839 2.781891 29.795425 2.724529
2005-03-09 08:37:19 51°22.355 3°2.547 3.3827 2.782522 29.80123 2.791947
2005-03-09 08:37:24 51°22.368 3°2.561 3.386 2.782838 29.804132 2.690819
2005-03-09 08:37:28 51°22.379 3°2.572 3.3843 2.783153 29.805388 2.690819
2005-03-09 08:37:34 51°22.396 3°2.589 3.3776 2.782943 29.801259 2.65711
2005-03-09 08:37:39 51°22.411 3°2.604 3.3836 2.782943 29.797969 2.6234
2005-03-09 08:37:44 51°22.423 3°2.617 3.3848 2.782943 29.797969 2.6234
2005-03-09 08:37:49 51°22.439 3°2.634 3.3845 2.782943 29.797146 2.488563
2005-03-09 08:37:54 51°22.451 3°2.647 3.3774 2.783048 29.798388 2.488563
2005-03-09 08:37:58 51°22.464 3°2.659 3.3773 2.782943 29.796324 2.488563
2005-03-09 08:38:03 51°22.478 3°2.674 3.3748 2.783048 29.79921 2.387435
2005-03-09 08:38:09 51°22.495 3°2.691 3.38 2.782943 29.798791 2.387435
2005-03-09 08:38:14 51°22.507 3°2.703 3.3763 2.782943 29.798791 2.387435
2005-03-09 08:38:19 51°22.524 3°2.718 3.373 2.782943 29.797146 2.421144
2005-03-09 08:38:24 51°22.539 3°2.725 3.3738 2.782522 29.793003 2.286306
2005-03-09 08:38:28 51°22.55 3°2.729 3.373 2.782943 29.798791 2.252597
2005-03-09 08:38:34 51°22.571 3°2.73 3.3688 2.781996 29.790086 2.218888
2005-03-09 08:38:39 51°22.585 3°2.729 3.3748 2.782838 29.800841 2.320016
2005-03-09 08:38:44 51°22.6 3°2.723 3.3759 2.782838 29.800841 2.320016
2005-03-09 08:38:49 51°22.617 3°2.717 3.3782 2.780839 29.778897 2.185178
2005-03-09 08:38:54 51°22.631 3°2.711 3.3851 2.782838 29.804955 2.050341
2005-03-09 08:38:59 51°22.647 3°2.705 3.3846 2.782206 29.798328 2.185178
2005-03-09 08:39:03 51°22.662 3°2.7 3.3808 2.782733 29.805359 1.982922
2005-03-09 08:39:09 51°22.681 3°2.694 3.381 2.783048 29.809908 1.982922
2005-03-09 08:39:14 51°22.697 3°2.69 3.38 2.783048 29.809908 1.982922
2005-03-09 08:39:19 51°22.713 3°2.685 3.3722 2.782943 29.806197 1.915503
2005-03-09 08:39:24 51°22.73 3°2.681 3.3789 2.783153 29.803742 1.881794
2005-03-09 08:39:29 51°22.745 3°2.677 3.3713 2.783364 29.801289 1.915503
2005-03-09 08:39:34 51°22.763 3°2.672 3.3739 2.782943 29.794679 1.881794
2005-03-09 08:39:38 51°22.777 3°2.668 3.3597 2.783048 29.797565 1.949212
2005-03-09 08:39:44 51°22.797 3°2.664 3.3568 2.783048 29.797565 1.949212
2005-03-09 08:39:48 51°22.809 3°2.66 3.368 2.782522 29.792181 1.848084
2005-03-09 08:39:54 51°22.828 3°2.654 3.359 2.782101 29.789683 1.915503
2005-03-09 08:39:58 51°22.843 3°2.649 3.366 2.781786 29.786781 1.915503
2005-03-09 08:40:04 51°22.861 3°2.642 3.3545 2.781575 29.785943 1.915503
2005-03-09 08:40:09 51°22.879 3°2.636 3.3529 2.780944 29.783428 2.151469
2005-03-09 08:40:14 51°22.894 3°2.63 3.3527 2.780944 29.783428 2.151469
2005-03-09 08:40:19 51°22.912 3°2.624 3.3471 2.780523 29.783396 1.915503
2005-03-09 08:40:24 51°22.926 3°2.618 3.3469 2.779892 29.77759 1.915503
2005-03-09 08:40:30 51°22.947 3°2.61 3.3428 2.779786 29.777171 1.949212
2005-03-09 08:40:34 51°22.961 3°2.605 3.3469 2.779576 29.777154 1.915503
2005-03-09 08:40:38 51°22.975 3°2.6 3.3425 2.779366 29.777961 1.915503
2005-03-09 08:40:45 51°22.996 3°2.592 3.3405 2.779366 29.777961 1.915503
2005-03-09 08:40:49 51°23.011 3°2.586 3.3466 2.776945 29.750217 2.050341
2005-03-09 08:40:54 51°23.026 3°2.58 3.3412 2.778734 29.775444 2.016631
2005-03-09 08:40:59 51°23.045 3°2.573 3.34 2.77884 29.779155 2.050341
2005-03-09 08:41:04 51°23.06 3°2.567 3.3389 2.77905 29.781639 2.016631
2005-03-09 08:41:08 51°23.074 3°2.562 3.3417 2.779366 29.784543 2.050341
2005-03-09 08:41:14 51°23.093 3°2.554 3.3421 2.779366 29.784543 2.050341
2005-03-09 08:41:19 51°23.109 3°2.548 3.3395 2.780102 29.796533 1.949212
2005-03-09 08:41:24 51°23.126 3°2.54 3.34 2.780523 29.802327 1.949212
2005-03-09 08:41:29 51°23.143 3°2.533 3.3352 2.780839 29.805231 1.949212
2005-03-09 08:41:34 51°23.159 3°2.526 3.3389 2.781681 29.817644 1.881794
2005-03-09 08:41:39 51°23.174 3°2.518 3.3483 2.781681 29.817644 1.915503
2005-03-09 08:41:43 51°23.19 3°2.512 3.3471 2.781681 29.817644 1.915503
2005-03-09 08:41:49 51°23.21 3°2.504 3.3486 2.782101 29.821791 1.915503
2005-03-09 08:41:54 51°23.224 3°2.497 3.3453 2.782417 29.827993 1.982922
2005-03-09 08:41:59 51°23.243 3°2.489 3.3452 2.782312 29.82675 1.881794
2005-03-09 08:42:04 51°23.259 3°2.482 3.3521 2.782838 29.832964 1.982922
2005-03-09 08:42:08 51°23.271 3°2.477 3.3531 2.782943 29.833382 1.949212
2005-03-09 08:42:14 51°23.292 3°2.467 3.3571 2.782943 29.833382 1.949212
2005-03-09 08:42:19 51°23.308 3°2.46 3.3625 2.783364 29.835055 1.982922
2005-03-09 08:42:24 51°23.326 3°2.453 3.3725 2.784311 29.845415 2.050341
2005-03-09 08:42:28 51°23.337 3°2.448 3.3757 2.785995 29.864475 2.016631
2005-03-09 08:42:34 51°23.356 3°2.439 3.3796 2.787257 29.878564 2.016631
2005-03-09 08:42:38 51°23.371 3°2.432 3.3857 2.788731 29.89514 2.016631
2005-03-09 08:42:44 51°23.39 3°2.424 3.3891 2.788731 29.89514 2.016631
2005-03-09 08:42:48 51°23.402 3°2.419 3.3942 2.790519 29.912138 2.08405
2005-03-09 08:42:54 51°23.423 3°2.41 3.3927 2.792308 29.926653 2.016631
2005-03-09 08:42:59 51°23.439 3°2.403 3.3966 2.794728 29.950274 1.949212
2005-03-09 08:43:04 51°23.454 3°2.397 3.3994 2.796833 29.970991 1.915503
2005-03-09 08:43:08 51°23.467 3°2.392 3.4007 2.798516 29.986734 1.881794
2005-03-09 08:43:14 51°23.488 3°2.383 3.4108 2.798516 29.986734 1.881794
2005-03-09 08:43:19 51°23.504 3°2.376 3.4172 2.800515 30.002889 1.881794
2005-03-09 08:43:24 51°23.519 3°2.369 3.4201 2.802199 30.020282 1.848084
2005-03-09 08:43:27 51°23.531 3°2.365 3.4217 2.804198 30.040573 1.915503
2005-03-09 08:43:34 51°23.553 3°2.355 3.4283 2.805671 30.05382 1.881794
2005-03-09 08:43:38 51°23.566 3°2.349 3.4316 2.807776 30.075349 1.814375
2005-03-09 08:43:43 51°23.582 3°2.342 3.434 2.807776 30.075349 1.814375
2005-03-09 08:43:49 51°23.601 3°2.334 3.4439 2.810091 30.097699 1.814375
2005-03-09 08:43:54 51°23.615 3°2.327 3.4489 2.811669 30.11052 1.746956
2005-03-09 08:43:59 51°23.632 3°2.319 3.4548 2.814195 30.135346 1.746956
2005-03-09 08:44:04 51°23.649 3°2.312 3.4558 2.816826 30.163073 1.713247
2005-03-09 08:44:09 51°23.666 3°2.304 3.4648 2.81872 30.18044 1.746956
2005-03-09 08:44:14 51°23.682 3°2.298 3.4709 2.81872 30.18044 1.746956
2005-03-09 08:44:19 51°23.7 3°2.291 3.4728 2.820929 30.202361 1.780665
2005-03-09 08:44:24 51°23.714 3°2.286 3.4862 2.822508 30.215162 1.746956
2005-03-09 08:44:29 51°23.73 3°2.282 3.4872 2.824718 30.234577 1.814375
2005-03-09 08:44:34 51°23.746 3°2.279 3.4882 2.826822 30.253578 1.780665
2005-03-09 08:44:39 51°23.764 3°2.275 3.489 2.828822 30.273001 1.780665
2005-03-09 08:44:44 51°23.779 3°2.273 3.4938 2.828822 30.273001 1.780665
2005-03-09 08:44:49 51°23.797 3°2.271 3.4992 2.831137 30.293643 1.746956
2005-03-09 08:44:54 51°23.814 3°2.269 3.5029 2.833136 30.310555 1.746956
2005-03-09 08:44:58 51°23.828 3°2.269 3.504 2.835346 30.330779 1.713247
2005-03-09 08:45:04 51°23.846 3°2.267 3.5054 2.836924 30.342717 1.746956
2005-03-09 08:45:10 51°23.866 3°2.265 3.5126 2.839029 30.364197 1.780665
2005-03-09 08:45:14 51°23.881 3°2.264 3.5161 2.839029 30.364197 1.780665
2005-03-09 08:45:19 51°23.897 3°2.263 3.5152 2.841449 30.389398 1.713247
2005-03-09 08:45:24 51°23.913 3°2.262 3.522 2.843238 30.407151 1.679537
2005-03-09 08:45:29 51°23.932 3°2.262 3.5226 2.844396 30.415783 1.679537
2005-03-09 08:45:34 51°23.948 3°2.263 3.5242 2.846501 30.438091 1.645828
2005-03-09 08:45:38 51°23.962 3°2.265 3.5244 2.8485 30.458319 1.645828
2005-03-09 08:45:43 51°23.979 3°2.266 3.5305 2.8485 30.458319 1.645828
2005-03-09 08:45:49 51°23.999 3°2.269 3.5303 2.849447 30.466137 1.612118
2005-03-09 08:45:54 51°24.013 3°2.272 3.5293 2.850289 30.472712 1.578409
2005-03-09 08:45:59 51°24.03 3°2.278 3.5278 2.851026 30.478046 1.612118
2005-03-09 08:46:04 51°24.047 3°2.283 3.5256 2.852078 30.487101 1.612118
2005-03-09 08:46:08 51°24.061 3°2.289 3.5273 2.852815 30.494948 1.645828
2005-03-09 08:46:14 51°24.079 3°2.299 3.5294 2.852815 30.494948 1.645828
2005-03-09 08:46:19 51°24.094 3°2.306 3.5255 2.853025 30.494076 1.645828
2005-03-09 08:46:24 51°24.11 3°2.316 3.5279 2.853551 30.496927 1.612118
2005-03-09 08:46:28 51°24.122 3°2.324 3.5265 2.853341 30.49277 1.578409
2005-03-09 08:46:34 51°24.141 3°2.337 3.5266 2.853867 30.498134 1.612118
2005-03-09 08:46:39 51°24.157 3°2.348 3.5286 2.854288 30.503933 1.612118
2005-03-09 08:46:44 51°24.17 3°2.357 3.5304 2.854288 30.503933 1.612118
2005-03-09 08:46:49 51°24.187 3°2.37 3.5291 2.854393 30.505173 1.578409
2005-03-09 08:46:54 51°24.202 3°2.38 3.5297 2.854498 30.50809 1.578409
2005-03-09 08:46:58 51°24.215 3°2.389 3.5341 2.855024 30.513454 1.578409
2005-03-09 08:47:04 51°24.231 3°2.401 3.5423 2.855235 30.516774 1.645828
2005-03-09 08:47:09 51°24.247 3°2.417 3.5473 2.855866 30.524217 1.679537
2005-03-09 08:47:14 51°24.259 3°2.433 3.5426 2.855866 30.524217 1.679537
2005-03-09 08:47:18 51°24.27 3°2.446 3.5541 2.856287 30.527501 1.612118
2005-03-09 08:47:24 51°24.284 3°2.466 3.5544 2.857129 30.539104 1.612118
2005-03-09 08:47:30 51°24.298 3°2.487 3.5609 2.858287 30.550233 1.612118
2005-03-09 08:47:34 51°24.308 3°2.502 3.5652 2.859023 30.55388 1.612118
2005-03-09 08:47:39 51°24.323 3°2.522 3.5662 2.859655 30.555447 1.5447
2005-03-09 08:47:44 51°24.333 3°2.541 3.5699 2.859655 30.555447 1.5447
2005-03-09 08:47:47 51°24.341 3°2.554 3.5715 2.860812 30.567411 1.578409
2005-03-09 08:47:54 51°24.358 3°2.583 3.5695 2.861654 30.574814 1.51099
2005-03-09 08:47:59 51°24.37 3°2.603 3.5715 2.863022 30.585898 1.51099
2005-03-09 08:48:04 51°24.379 3°2.621 3.5695 2.864496 30.599899 1.5447
2005-03-09 08:48:09 51°24.391 3°2.646 3.5706 2.865759 30.610578 1.51099
2005-03-09 08:48:14 51°24.402 3°2.668 3.5685 2.865759 30.610578 1.51099
2005-03-09 08:48:19 51°24.413 3°2.691 3.5726 2.866811 30.618775 1.5447
2005-03-09 08:48:24 51°24.423 3°2.71 3.5683 2.867969 30.629892 1.578409
2005-03-09 08:48:29 51°24.433 3°2.732 3.5715 2.86881 30.638129 1.578409
2005-03-09 08:48:34 51°24.444 3°2.754 3.5734 2.869021 30.639768 1.51099
2005-03-09 08:48:38 51°24.453 3°2.775 3.5776 2.86881 30.637288 1.578409
2005-03-09 08:48:44 51°24.465 3°2.799 3.5757 2.86881 30.637288 1.578409
2005-03-09 08:48:49 51°24.477 3°2.824 3.5742 2.868284 30.633611 1.5447
2005-03-09 08:48:54 51°24.488 3°2.844 3.5774 2.868074 30.630291 1.578409
2005-03-09 08:48:59 51°24.498 3°2.867 3.5803 2.868284 30.633611 1.612118
2005-03-09 08:49:04 51°24.51 3°2.888 3.5812 2.86839 30.63401 1.612118
2005-03-09 08:49:08 51°24.517 3°2.904 3.5841 2.868705 30.636048 1.578409
2005-03-09 08:49:14 51°24.531 3°2.932 3.5835 2.868705 30.636048 1.578409
2005-03-09 08:49:18 51°24.54 3°2.949 3.5847 2.869231 30.640566 1.645828
2005-03-09 08:49:24 51°24.552 3°2.973 3.5856 2.869547 30.642603 1.645828
2005-03-09 08:49:29 51°24.564 3°2.998 3.5875 2.869968 30.646721 1.679537
2005-03-09 08:49:34 51°24.574 3°3.02 3.5906 2.870494 30.649556 1.645828
2005-03-09 08:49:38 51°24.583 3°3.038 3.5898 2.870915 30.652832 1.713247
2005-03-09 08:49:44 51°24.595 3°3.063 3.5906 2.870915 30.652832 1.713247
2005-03-09 08:49:48 51°24.603 3°3.084 3.5934 2.871652 30.660668 1.679537